<?xml version="1.0" encoding="UTF-8"?><gpx creator="Wikiloc - http://www.wikiloc.com" version="1.1" xmlns="http://www.topografix.com/GPX/1/1" xmlns:xsi="http://www.w3.org/2001/XMLSchema-instance" xsi:schemaLocation="http://www.topografix.com/GPX/1/1 http://www.topografix.com/GPX/1/1/gpx.xsd"><wpt lat="40.270606" lon="-5.658579"><ele>0.0</ele><time>2015-09-28T17:08:20Z</time><name>Puerto Tornavacas</name><cmt></cmt><desc></desc></wpt><wpt lat="40.256569" lon="-5.683247"><ele>0.0</ele><time>2015-09-28T17:08:20Z</time><name>Tornavacas</name><cmt></cmt><desc></desc></wpt><wpt lat="40.250477" lon="-5.693469"><ele>0.0</ele><time>2015-09-28T17:08:20Z</time><name>Río Jerte</name><cmt></cmt><desc></desc></wpt><wpt lat="40.220701" lon="-5.749221"><ele>0.0</ele><time>2015-09-28T17:08:20Z</time><name>Jerte</name><cmt></cmt><desc></desc></wpt><wpt lat="40.205963" lon="-5.772298"><ele>0.0</ele><time>2015-09-28T17:08:20Z</time><name>CI Garg de los Infiernos</name><cmt></cmt><desc></desc></wpt><wpt lat="40.196576" lon="-5.806684"><ele>0.0</ele><time>2015-09-28T17:08:20Z</time><name>Cabezuela del Valle</name><cmt></cmt><desc></desc></wpt><wpt lat="40.221821" lon="-5.871768"><ele>0.0</ele><time>2015-09-28T17:08:20Z</time><name>Puerto de Honduras</name><cmt></cmt><desc></desc></wpt><trk><name>GR 10 Tramo Valle del Jerte</name><cmt></cmt><desc></desc><trkseg><trkpt lat="40.270570" lon="-5.658770"><ele>1278.4</ele><time>2015-07-07T05:01:00Z</time></trkpt><trkpt lat="40.270480" lon="-5.658980"><ele>1278.4</ele><time>2015-07-07T05:01:27Z</time></trkpt><trkpt lat="40.270370" lon="-5.659280"><ele>1277.9</ele><time>2015-07-07T05:01:54Z</time></trkpt><trkpt lat="40.270280" lon="-5.659420"><ele>1277.1</ele><time>2015-07-07T05:02:21Z</time></trkpt><trkpt lat="40.270250" lon="-5.659450"><ele>1277.0</ele><time>2015-07-07T05:02:48Z</time></trkpt><trkpt lat="40.270230" lon="-5.659480"><ele>1276.8</ele><time>2015-07-07T05:03:15Z</time></trkpt><trkpt lat="40.270210" lon="-5.659510"><ele>1276.6</ele><time>2015-07-07T05:03:42Z</time></trkpt><trkpt lat="40.270150" lon="-5.659580"><ele>1275.8</ele><time>2015-07-07T05:04:09Z</time></trkpt><trkpt lat="40.269900" lon="-5.659790"><ele>1273.0</ele><time>2015-07-07T05:04:36Z</time></trkpt><trkpt lat="40.269770" lon="-5.659970"><ele>1272.2</ele><time>2015-07-07T05:05:03Z</time></trkpt><trkpt lat="40.269660" lon="-5.660120"><ele>1271.2</ele><time>2015-07-07T05:05:30Z</time></trkpt><trkpt lat="40.269620" lon="-5.660160"><ele>1270.7</ele><time>2015-07-07T05:05:57Z</time></trkpt><trkpt lat="40.269530" lon="-5.660240"><ele>1269.3</ele><time>2015-07-07T05:06:24Z</time></trkpt><trkpt lat="40.269500" lon="-5.660250"><ele>1268.9</ele><time>2015-07-07T05:06:51Z</time></trkpt><trkpt lat="40.269500" lon="-5.660240"><ele>1269.1</ele><time>2015-07-07T05:07:18Z</time></trkpt><trkpt lat="40.269530" lon="-5.660200"><ele>1270.0</ele><time>2015-07-07T05:07:45Z</time></trkpt><trkpt lat="40.269530" lon="-5.660200"><ele>1270.0</ele><time>2015-07-07T05:08:12Z</time></trkpt><trkpt lat="40.269530" lon="-5.660220"><ele>1269.6</ele><time>2015-07-07T05:08:39Z</time></trkpt><trkpt lat="40.269430" lon="-5.660390"><ele>1266.4</ele><time>2015-07-07T05:09:06Z</time></trkpt><trkpt lat="40.269350" lon="-5.660480"><ele>1264.4</ele><time>2015-07-07T05:09:33Z</time></trkpt><trkpt lat="40.269320" lon="-5.660610"><ele>1261.9</ele><time>2015-07-07T05:10:00Z</time></trkpt><trkpt lat="40.269310" lon="-5.660620"><ele>1261.6</ele><time>2015-07-07T05:10:27Z</time></trkpt><trkpt lat="40.269180" lon="-5.660830"><ele>1256.3</ele><time>2015-07-07T05:10:54Z</time></trkpt><trkpt lat="40.269180" lon="-5.660840"><ele>1256.2</ele><time>2015-07-07T05:11:21Z</time></trkpt><trkpt lat="40.269180" lon="-5.660880"><ele>1256.1</ele><time>2015-07-07T05:11:48Z</time></trkpt><trkpt lat="40.269100" lon="-5.660990"><ele>1254.8</ele><time>2015-07-07T05:12:15Z</time></trkpt><trkpt lat="40.268970" lon="-5.661070"><ele>1252.1</ele><time>2015-07-07T05:12:42Z</time></trkpt><trkpt lat="40.268900" lon="-5.661100"><ele>1250.4</ele><time>2015-07-07T05:13:09Z</time></trkpt><trkpt lat="40.268900" lon="-5.661100"><ele>1250.4</ele><time>2015-07-07T05:13:36Z</time></trkpt><trkpt lat="40.268850" lon="-5.661130"><ele>1248.8</ele><time>2015-07-07T05:14:03Z</time></trkpt><trkpt lat="40.268800" lon="-5.661170"><ele>1246.8</ele><time>2015-07-07T05:14:30Z</time></trkpt><trkpt lat="40.268740" lon="-5.661230"><ele>1244.0</ele><time>2015-07-07T05:14:57Z</time></trkpt><trkpt lat="40.268650" lon="-5.661270"><ele>1240.5</ele><time>2015-07-07T05:15:24Z</time></trkpt><trkpt lat="40.268600" lon="-5.661330"><ele>1237.5</ele><time>2015-07-07T05:15:51Z</time></trkpt><trkpt lat="40.268530" lon="-5.661400"><ele>1234.7</ele><time>2015-07-07T05:16:18Z</time></trkpt><trkpt lat="40.268460" lon="-5.661520"><ele>1232.3</ele><time>2015-07-07T05:16:45Z</time></trkpt><trkpt lat="40.268390" lon="-5.661600"><ele>1229.6</ele><time>2015-07-07T05:17:12Z</time></trkpt><trkpt lat="40.268360" lon="-5.661660"><ele>1227.9</ele><time>2015-07-07T05:17:39Z</time></trkpt><trkpt lat="40.268320" lon="-5.661720"><ele>1226.3</ele><time>2015-07-07T05:18:06Z</time></trkpt><trkpt lat="40.268220" lon="-5.661880"><ele>1222.5</ele><time>2015-07-07T05:18:33Z</time></trkpt><trkpt lat="40.268210" lon="-5.661880"><ele>1222.2</ele><time>2015-07-07T05:19:00Z</time></trkpt><trkpt lat="40.268190" lon="-5.661890"><ele>1221.6</ele><time>2015-07-07T05:19:27Z</time></trkpt><trkpt lat="40.268100" lon="-5.661950"><ele>1218.2</ele><time>2015-07-07T05:19:54Z</time></trkpt><trkpt lat="40.268040" lon="-5.662010"><ele>1216.0</ele><time>2015-07-07T05:20:21Z</time></trkpt><trkpt lat="40.268030" lon="-5.662030"><ele>1215.6</ele><time>2015-07-07T05:20:48Z</time></trkpt><trkpt lat="40.267910" lon="-5.662130"><ele>1212.0</ele><time>2015-07-07T05:21:15Z</time></trkpt><trkpt lat="40.267900" lon="-5.662170"><ele>1211.3</ele><time>2015-07-07T05:21:42Z</time></trkpt><trkpt lat="40.267870" lon="-5.662280"><ele>1209.7</ele><time>2015-07-07T05:22:09Z</time></trkpt><trkpt lat="40.267850" lon="-5.662330"><ele>1208.9</ele><time>2015-07-07T05:22:36Z</time></trkpt><trkpt lat="40.267790" lon="-5.662500"><ele>1205.5</ele><time>2015-07-07T05:23:03Z</time></trkpt><trkpt lat="40.267750" lon="-5.662570"><ele>1204.0</ele><time>2015-07-07T05:23:30Z</time></trkpt><trkpt lat="40.267660" lon="-5.662680"><ele>1201.1</ele><time>2015-07-07T05:23:57Z</time></trkpt><trkpt lat="40.267580" lon="-5.662750"><ele>1198.5</ele><time>2015-07-07T05:24:24Z</time></trkpt><trkpt lat="40.267540" lon="-5.662820"><ele>1197.1</ele><time>2015-07-07T05:24:51Z</time></trkpt><trkpt lat="40.267480" lon="-5.662900"><ele>1195.1</ele><time>2015-07-07T05:25:18Z</time></trkpt><trkpt lat="40.267390" lon="-5.663010"><ele>1192.2</ele><time>2015-07-07T05:25:45Z</time></trkpt><trkpt lat="40.267380" lon="-5.663050"><ele>1191.6</ele><time>2015-07-07T05:26:12Z</time></trkpt><trkpt lat="40.267330" lon="-5.663120"><ele>1189.8</ele><time>2015-07-07T05:26:39Z</time></trkpt><trkpt lat="40.267260" lon="-5.663200"><ele>1186.8</ele><time>2015-07-07T05:27:06Z</time></trkpt><trkpt lat="40.267260" lon="-5.663210"><ele>1186.7</ele><time>2015-07-07T05:27:33Z</time></trkpt><trkpt lat="40.267250" lon="-5.663220"><ele>1186.3</ele><time>2015-07-07T05:28:00Z</time></trkpt><trkpt lat="40.267200" lon="-5.663330"><ele>1183.4</ele><time>2015-07-07T05:28:27Z</time></trkpt><trkpt lat="40.267170" lon="-5.663390"><ele>1182.4</ele><time>2015-07-07T05:28:54Z</time></trkpt><trkpt lat="40.267140" lon="-5.663430"><ele>1181.4</ele><time>2015-07-07T05:29:21Z</time></trkpt><trkpt lat="40.267060" lon="-5.663570"><ele>1178.3</ele><time>2015-07-07T05:29:48Z</time></trkpt><trkpt lat="40.266980" lon="-5.663690"><ele>1175.1</ele><time>2015-07-07T05:30:15Z</time></trkpt><trkpt lat="40.266940" lon="-5.663800"><ele>1173.2</ele><time>2015-07-07T05:30:42Z</time></trkpt><trkpt lat="40.266870" lon="-5.663890"><ele>1171.1</ele><time>2015-07-07T05:31:09Z</time></trkpt><trkpt lat="40.266770" lon="-5.664000"><ele>1168.0</ele><time>2015-07-07T05:31:36Z</time></trkpt><trkpt lat="40.266720" lon="-5.664140"><ele>1165.7</ele><time>2015-07-07T05:32:03Z</time></trkpt><trkpt lat="40.266680" lon="-5.664340"><ele>1162.6</ele><time>2015-07-07T05:32:30Z</time></trkpt><trkpt lat="40.266620" lon="-5.664440"><ele>1160.0</ele><time>2015-07-07T05:32:57Z</time></trkpt><trkpt lat="40.266570" lon="-5.664610"><ele>1157.3</ele><time>2015-07-07T05:33:24Z</time></trkpt><trkpt lat="40.266500" lon="-5.664800"><ele>1155.1</ele><time>2015-07-07T05:33:51Z</time></trkpt><trkpt lat="40.266490" lon="-5.664910"><ele>1154.9</ele><time>2015-07-07T05:34:18Z</time></trkpt><trkpt lat="40.266460" lon="-5.665020"><ele>1154.0</ele><time>2015-07-07T05:34:45Z</time></trkpt><trkpt lat="40.266410" lon="-5.665150"><ele>1152.2</ele><time>2015-07-07T05:35:12Z</time></trkpt><trkpt lat="40.266400" lon="-5.665160"><ele>1151.8</ele><time>2015-07-07T05:35:39Z</time></trkpt><trkpt lat="40.266360" lon="-5.665190"><ele>1151.2</ele><time>2015-07-07T05:36:06Z</time></trkpt><trkpt lat="40.266340" lon="-5.665240"><ele>1151.0</ele><time>2015-07-07T05:36:33Z</time></trkpt><trkpt lat="40.266330" lon="-5.665430"><ele>1150.5</ele><time>2015-07-07T05:37:00Z</time></trkpt><trkpt lat="40.266300" lon="-5.665560"><ele>1149.4</ele><time>2015-07-07T05:37:27Z</time></trkpt><trkpt lat="40.266230" lon="-5.665750"><ele>1146.6</ele><time>2015-07-07T05:37:54Z</time></trkpt><trkpt lat="40.266160" lon="-5.665920"><ele>1143.2</ele><time>2015-07-07T05:38:21Z</time></trkpt><trkpt lat="40.266070" lon="-5.665980"><ele>1140.1</ele><time>2015-07-07T05:38:48Z</time></trkpt><trkpt lat="40.266040" lon="-5.665930"><ele>1140.0</ele><time>2015-07-07T05:39:15Z</time></trkpt><trkpt lat="40.266000" lon="-5.666000"><ele>1138.5</ele><time>2015-07-07T05:39:42Z</time></trkpt><trkpt lat="40.265940" lon="-5.666070"><ele>1136.3</ele><time>2015-07-07T05:40:09Z</time></trkpt><trkpt lat="40.265790" lon="-5.666250"><ele>1132.2</ele><time>2015-07-07T05:40:36Z</time></trkpt><trkpt lat="40.265760" lon="-5.666320"><ele>1131.8</ele><time>2015-07-07T05:41:03Z</time></trkpt><trkpt lat="40.265710" lon="-5.666370"><ele>1131.6</ele><time>2015-07-07T05:41:30Z</time></trkpt><trkpt lat="40.265690" lon="-5.666410"><ele>1131.4</ele><time>2015-07-07T05:41:57Z</time></trkpt><trkpt lat="40.265700" lon="-5.666640"><ele>1129.7</ele><time>2015-07-07T05:42:24Z</time></trkpt><trkpt lat="40.265720" lon="-5.666700"><ele>1129.6</ele><time>2015-07-07T05:42:51Z</time></trkpt><trkpt lat="40.265710" lon="-5.666730"><ele>1129.3</ele><time>2015-07-07T05:43:18Z</time></trkpt><trkpt lat="40.265680" lon="-5.666830"><ele>1128.4</ele><time>2015-07-07T05:43:45Z</time></trkpt><trkpt lat="40.265670" lon="-5.666880"><ele>1128.0</ele><time>2015-07-07T05:44:12Z</time></trkpt><trkpt lat="40.265640" lon="-5.666970"><ele>1126.9</ele><time>2015-07-07T05:44:39Z</time></trkpt><trkpt lat="40.265580" lon="-5.666950"><ele>1126.3</ele><time>2015-07-07T05:45:06Z</time></trkpt><trkpt lat="40.265570" lon="-5.667070"><ele>1124.8</ele><time>2015-07-07T05:45:33Z</time></trkpt><trkpt lat="40.265570" lon="-5.667080"><ele>1124.7</ele><time>2015-07-07T05:46:00Z</time></trkpt><trkpt lat="40.265560" lon="-5.667140"><ele>1123.9</ele><time>2015-07-07T05:46:27Z</time></trkpt><trkpt lat="40.265510" lon="-5.667380"><ele>1121.1</ele><time>2015-07-07T05:46:54Z</time></trkpt><trkpt lat="40.265490" lon="-5.667420"><ele>1120.7</ele><time>2015-07-07T05:47:21Z</time></trkpt><trkpt lat="40.265490" lon="-5.667500"><ele>1119.7</ele><time>2015-07-07T05:47:48Z</time></trkpt><trkpt lat="40.265500" lon="-5.667540"><ele>1119.3</ele><time>2015-07-07T05:48:15Z</time></trkpt><trkpt lat="40.265500" lon="-5.667580"><ele>1119.0</ele><time>2015-07-07T05:48:42Z</time></trkpt><trkpt lat="40.265620" lon="-5.667950"><ele>1115.6</ele><time>2015-07-07T05:49:09Z</time></trkpt><trkpt lat="40.265600" lon="-5.668310"><ele>1112.5</ele><time>2015-07-07T05:49:36Z</time></trkpt><trkpt lat="40.265350" lon="-5.668730"><ele>1106.7</ele><time>2015-07-07T05:50:03Z</time></trkpt><trkpt lat="40.265320" lon="-5.668730"><ele>1106.5</ele><time>2015-07-07T05:50:30Z</time></trkpt><trkpt lat="40.264970" lon="-5.668960"><ele>1107.0</ele><time>2015-07-07T05:50:57Z</time></trkpt><trkpt lat="40.264900" lon="-5.669060"><ele>1106.1</ele><time>2015-07-07T05:51:24Z</time></trkpt><trkpt lat="40.264630" lon="-5.669510"><ele>1100.5</ele><time>2015-07-07T05:51:51Z</time></trkpt><trkpt lat="40.264330" lon="-5.669910"><ele>1096.0</ele><time>2015-07-07T05:52:18Z</time></trkpt><trkpt lat="40.263970" lon="-5.670120"><ele>1094.3</ele><time>2015-07-07T05:52:45Z</time></trkpt><trkpt lat="40.263810" lon="-5.670020"><ele>1096.9</ele><time>2015-07-07T05:53:12Z</time></trkpt><trkpt lat="40.263680" lon="-5.670000"><ele>1097.8</ele><time>2015-07-07T05:53:39Z</time></trkpt><trkpt lat="40.263320" lon="-5.670230"><ele>1093.7</ele><time>2015-07-07T05:54:06Z</time></trkpt><trkpt lat="40.263000" lon="-5.670680"><ele>1092.6</ele><time>2015-07-07T05:54:33Z</time></trkpt><trkpt lat="40.262910" lon="-5.670790"><ele>1092.3</ele><time>2015-07-07T05:55:00Z</time></trkpt><trkpt lat="40.262590" lon="-5.670950"><ele>1088.4</ele><time>2015-07-07T05:55:27Z</time></trkpt><trkpt lat="40.262540" lon="-5.671000"><ele>1086.2</ele><time>2015-07-07T05:55:54Z</time></trkpt><trkpt lat="40.262260" lon="-5.671180"><ele>1078.2</ele><time>2015-07-07T05:56:21Z</time></trkpt><trkpt lat="40.262240" lon="-5.671150"><ele>1078.5</ele><time>2015-07-07T05:56:48Z</time></trkpt><trkpt lat="40.262170" lon="-5.671070"><ele>1080.3</ele><time>2015-07-07T05:57:15Z</time></trkpt><trkpt lat="40.262170" lon="-5.671080"><ele>1080.0</ele><time>2015-07-07T05:57:42Z</time></trkpt><trkpt lat="40.262190" lon="-5.671170"><ele>1077.9</ele><time>2015-07-07T05:58:09Z</time></trkpt><trkpt lat="40.262120" lon="-5.671150"><ele>1078.3</ele><time>2015-07-07T05:58:36Z</time></trkpt><trkpt lat="40.262070" lon="-5.671170"><ele>1077.9</ele><time>2015-07-07T05:59:03Z</time></trkpt><trkpt lat="40.262000" lon="-5.671210"><ele>1077.2</ele><time>2015-07-07T05:59:30Z</time></trkpt><trkpt lat="40.261920" lon="-5.671250"><ele>1076.8</ele><time>2015-07-07T05:59:57Z</time></trkpt><trkpt lat="40.261870" lon="-5.671300"><ele>1076.6</ele><time>2015-07-07T06:00:24Z</time></trkpt><trkpt lat="40.261700" lon="-5.671770"><ele>1073.9</ele><time>2015-07-07T06:00:51Z</time></trkpt><trkpt lat="40.261630" lon="-5.671930"><ele>1073.6</ele><time>2015-07-07T06:01:18Z</time></trkpt><trkpt lat="40.261570" lon="-5.672050"><ele>1073.1</ele><time>2015-07-07T06:01:45Z</time></trkpt><trkpt lat="40.261470" lon="-5.672250"><ele>1071.7</ele><time>2015-07-07T06:02:12Z</time></trkpt><trkpt lat="40.261270" lon="-5.672710"><ele>1067.8</ele><time>2015-07-07T06:02:39Z</time></trkpt><trkpt lat="40.261170" lon="-5.673040"><ele>1065.9</ele><time>2015-07-07T06:03:06Z</time></trkpt><trkpt lat="40.261090" lon="-5.673240"><ele>1065.2</ele><time>2015-07-07T06:03:33Z</time></trkpt><trkpt lat="40.261030" lon="-5.673460"><ele>1064.8</ele><time>2015-07-07T06:04:00Z</time></trkpt><trkpt lat="40.261030" lon="-5.673470"><ele>1064.7</ele><time>2015-07-07T06:04:27Z</time></trkpt><trkpt lat="40.261020" lon="-5.673480"><ele>1065.0</ele><time>2015-07-07T06:04:54Z</time></trkpt><trkpt lat="40.261020" lon="-5.673530"><ele>1064.5</ele><time>2015-07-07T06:05:21Z</time></trkpt><trkpt lat="40.261010" lon="-5.673630"><ele>1063.6</ele><time>2015-07-07T06:05:48Z</time></trkpt><trkpt lat="40.261020" lon="-5.673640"><ele>1063.0</ele><time>2015-07-07T06:06:15Z</time></trkpt><trkpt lat="40.261040" lon="-5.673900"><ele>1056.5</ele><time>2015-07-07T06:06:42Z</time></trkpt><trkpt lat="40.261040" lon="-5.673900"><ele>1056.5</ele><time>2015-07-07T06:07:09Z</time></trkpt><trkpt lat="40.260820" lon="-5.674250"><ele>1051.0</ele><time>2015-07-07T06:07:36Z</time></trkpt><trkpt lat="40.260710" lon="-5.674490"><ele>1046.5</ele><time>2015-07-07T06:08:03Z</time></trkpt><trkpt lat="40.260640" lon="-5.674720"><ele>1041.2</ele><time>2015-07-07T06:08:30Z</time></trkpt><trkpt lat="40.260620" lon="-5.674790"><ele>1039.5</ele><time>2015-07-07T06:08:57Z</time></trkpt><trkpt lat="40.260440" lon="-5.675050"><ele>1033.3</ele><time>2015-07-07T06:09:24Z</time></trkpt><trkpt lat="40.260390" lon="-5.675090"><ele>1032.7</ele><time>2015-07-07T06:09:51Z</time></trkpt><trkpt lat="40.260150" lon="-5.675330"><ele>1027.6</ele><time>2015-07-07T06:10:18Z</time></trkpt><trkpt lat="40.260110" lon="-5.675370"><ele>1026.5</ele><time>2015-07-07T06:10:45Z</time></trkpt><trkpt lat="40.259960" lon="-5.675650"><ele>1019.9</ele><time>2015-07-07T06:11:12Z</time></trkpt><trkpt lat="40.259890" lon="-5.675780"><ele>1018.0</ele><time>2015-07-07T06:11:39Z</time></trkpt><trkpt lat="40.259700" lon="-5.676010"><ele>1014.7</ele><time>2015-07-07T06:12:06Z</time></trkpt><trkpt lat="40.259450" lon="-5.676240"><ele>1010.2</ele><time>2015-07-07T06:12:33Z</time></trkpt><trkpt lat="40.259440" lon="-5.676260"><ele>1009.8</ele><time>2015-07-07T06:13:00Z</time></trkpt><trkpt lat="40.259450" lon="-5.676250"><ele>1010.0</ele><time>2015-07-07T06:13:27Z</time></trkpt><trkpt lat="40.259420" lon="-5.676230"><ele>1010.4</ele><time>2015-07-07T06:13:54Z</time></trkpt><trkpt lat="40.259220" lon="-5.676340"><ele>1007.5</ele><time>2015-07-07T06:14:21Z</time></trkpt><trkpt lat="40.258990" lon="-5.676470"><ele>1004.7</ele><time>2015-07-07T06:14:48Z</time></trkpt><trkpt lat="40.258880" lon="-5.676520"><ele>1003.8</ele><time>2015-07-07T06:15:15Z</time></trkpt><trkpt lat="40.258810" lon="-5.676580"><ele>1002.9</ele><time>2015-07-07T06:15:42Z</time></trkpt><trkpt lat="40.258720" lon="-5.676690"><ele>1001.3</ele><time>2015-07-07T06:16:09Z</time></trkpt><trkpt lat="40.258760" lon="-5.676890"><ele>996.2</ele><time>2015-07-07T06:16:36Z</time></trkpt><trkpt lat="40.258890" lon="-5.677190"><ele>990.5</ele><time>2015-07-07T06:17:03Z</time></trkpt><trkpt lat="40.258940" lon="-5.677300"><ele>989.0</ele><time>2015-07-07T06:17:30Z</time></trkpt><trkpt lat="40.258960" lon="-5.677350"><ele>988.4</ele><time>2015-07-07T06:17:57Z</time></trkpt><trkpt lat="40.259010" lon="-5.677570"><ele>985.8</ele><time>2015-07-07T06:18:24Z</time></trkpt><trkpt lat="40.259080" lon="-5.677780"><ele>983.3</ele><time>2015-07-07T06:18:51Z</time></trkpt><trkpt lat="40.259090" lon="-5.677980"><ele>980.4</ele><time>2015-07-07T06:19:18Z</time></trkpt><trkpt lat="40.259070" lon="-5.678070"><ele>979.2</ele><time>2015-07-07T06:19:45Z</time></trkpt><trkpt lat="40.259020" lon="-5.678250"><ele>977.1</ele><time>2015-07-07T06:20:12Z</time></trkpt><trkpt lat="40.258800" lon="-5.678550"><ele>973.0</ele><time>2015-07-07T06:20:39Z</time></trkpt><trkpt lat="40.258560" lon="-5.678730"><ele>970.3</ele><time>2015-07-07T06:21:06Z</time></trkpt><trkpt lat="40.258430" lon="-5.678960"><ele>965.9</ele><time>2015-07-07T06:21:33Z</time></trkpt><trkpt lat="40.258320" lon="-5.679180"><ele>961.8</ele><time>2015-07-07T06:22:00Z</time></trkpt><trkpt lat="40.258280" lon="-5.679260"><ele>960.6</ele><time>2015-07-07T06:22:27Z</time></trkpt><trkpt lat="40.258020" lon="-5.679570"><ele>957.9</ele><time>2015-07-07T06:22:54Z</time></trkpt><trkpt lat="40.257890" lon="-5.679700"><ele>956.0</ele><time>2015-07-07T06:23:21Z</time></trkpt><trkpt lat="40.257640" lon="-5.679820"><ele>950.8</ele><time>2015-07-07T06:23:48Z</time></trkpt><trkpt lat="40.257470" lon="-5.679830"><ele>947.4</ele><time>2015-07-07T06:24:15Z</time></trkpt><trkpt lat="40.257410" lon="-5.679820"><ele>947.0</ele><time>2015-07-07T06:24:42Z</time></trkpt><trkpt lat="40.257280" lon="-5.679790"><ele>946.4</ele><time>2015-07-07T06:25:09Z</time></trkpt><trkpt lat="40.257160" lon="-5.680020"><ele>942.9</ele><time>2015-07-07T06:25:36Z</time></trkpt><trkpt lat="40.257110" lon="-5.680100"><ele>943.0</ele><time>2015-07-07T06:26:03Z</time></trkpt><trkpt lat="40.257030" lon="-5.680240"><ele>942.5</ele><time>2015-07-07T06:26:30Z</time></trkpt><trkpt lat="40.256960" lon="-5.680350"><ele>942.3</ele><time>2015-07-07T06:26:57Z</time></trkpt><trkpt lat="40.256920" lon="-5.680470"><ele>942.3</ele><time>2015-07-07T06:27:24Z</time></trkpt><trkpt lat="40.256780" lon="-5.681040"><ele>935.2</ele><time>2015-07-07T06:27:51Z</time></trkpt><trkpt lat="40.256710" lon="-5.681290"><ele>932.6</ele><time>2015-07-07T06:28:18Z</time></trkpt><trkpt lat="40.256660" lon="-5.681420"><ele>932.0</ele><time>2015-07-07T06:28:45Z</time></trkpt><trkpt lat="40.256640" lon="-5.681540"><ele>931.6</ele><time>2015-07-07T06:29:12Z</time></trkpt><trkpt lat="40.256610" lon="-5.681680"><ele>931.3</ele><time>2015-07-07T06:29:39Z</time></trkpt><trkpt lat="40.256590" lon="-5.681810"><ele>930.5</ele><time>2015-07-07T06:30:06Z</time></trkpt><trkpt lat="40.256580" lon="-5.681890"><ele>929.8</ele><time>2015-07-07T06:30:33Z</time></trkpt><trkpt lat="40.256590" lon="-5.682050"><ele>927.1</ele><time>2015-07-07T06:31:00Z</time></trkpt><trkpt lat="40.256520" lon="-5.682300"><ele>924.9</ele><time>2015-07-07T06:31:27Z</time></trkpt><trkpt lat="40.256500" lon="-5.682380"><ele>923.7</ele><time>2015-07-07T06:31:54Z</time></trkpt><trkpt lat="40.256470" lon="-5.682610"><ele>919.5</ele><time>2015-07-07T06:32:21Z</time></trkpt><trkpt lat="40.256460" lon="-5.682810"><ele>916.1</ele><time>2015-07-07T06:32:48Z</time></trkpt><trkpt lat="40.256410" lon="-5.683020"><ele>914.9</ele><time>2015-07-07T06:33:15Z</time></trkpt><trkpt lat="40.256410" lon="-5.683040"><ele>914.7</ele><time>2015-07-07T06:33:42Z</time></trkpt><trkpt lat="40.256340" lon="-5.683130"><ele>916.0</ele><time>2015-07-07T06:34:09Z</time></trkpt><trkpt lat="40.256360" lon="-5.683140"><ele>914.8</ele><time>2015-07-07T06:34:36Z</time></trkpt><trkpt lat="40.256360" lon="-5.683140"><ele>914.8</ele><time>2015-07-07T06:35:03Z</time></trkpt><trkpt lat="40.256430" lon="-5.683220"><ele>911.4</ele><time>2015-07-07T06:35:30Z</time></trkpt><trkpt lat="40.256280" lon="-5.683420"><ele>912.9</ele><time>2015-07-07T06:35:57Z</time></trkpt><trkpt lat="40.256120" lon="-5.683660"><ele>912.7</ele><time>2015-07-07T06:36:24Z</time></trkpt><trkpt lat="40.256000" lon="-5.683780"><ele>914.8</ele><time>2015-07-07T06:36:51Z</time></trkpt><trkpt lat="40.255670" lon="-5.684150"><ele>911.6</ele><time>2015-07-07T06:37:18Z</time></trkpt><trkpt lat="40.255510" lon="-5.684360"><ele>909.0</ele><time>2015-07-07T06:37:45Z</time></trkpt><trkpt lat="40.255500" lon="-5.684390"><ele>908.5</ele><time>2015-07-07T06:38:12Z</time></trkpt><trkpt lat="40.255370" lon="-5.684580"><ele>905.9</ele><time>2015-07-07T06:38:39Z</time></trkpt><trkpt lat="40.255310" lon="-5.684720"><ele>902.8</ele><time>2015-07-07T06:39:06Z</time></trkpt><trkpt lat="40.255240" lon="-5.684850"><ele>901.0</ele><time>2015-07-07T06:39:33Z</time></trkpt><trkpt lat="40.255110" lon="-5.685040"><ele>899.1</ele><time>2015-07-07T06:40:00Z</time></trkpt><trkpt lat="40.255090" lon="-5.685060"><ele>898.9</ele><time>2015-07-07T06:40:27Z</time></trkpt><trkpt lat="40.254980" lon="-5.685200"><ele>896.3</ele><time>2015-07-07T06:40:54Z</time></trkpt><trkpt lat="40.254890" lon="-5.685300"><ele>894.8</ele><time>2015-07-07T06:41:21Z</time></trkpt><trkpt lat="40.254620" lon="-5.685570"><ele>892.8</ele><time>2015-07-07T06:41:48Z</time></trkpt><trkpt lat="40.254400" lon="-5.685850"><ele>886.7</ele><time>2015-07-07T06:42:15Z</time></trkpt><trkpt lat="40.254370" lon="-5.685890"><ele>886.3</ele><time>2015-07-07T06:42:42Z</time></trkpt><trkpt lat="40.254210" lon="-5.686230"><ele>880.3</ele><time>2015-07-07T06:43:09Z</time></trkpt><trkpt lat="40.254160" lon="-5.686210"><ele>881.4</ele><time>2015-07-07T06:43:36Z</time></trkpt><trkpt lat="40.254140" lon="-5.686220"><ele>881.9</ele><time>2015-07-07T06:44:03Z</time></trkpt><trkpt lat="40.254160" lon="-5.686260"><ele>880.5</ele><time>2015-07-07T06:44:30Z</time></trkpt><trkpt lat="40.253950" lon="-5.686600"><ele>881.1</ele><time>2015-07-07T06:44:57Z</time></trkpt><trkpt lat="40.253700" lon="-5.686880"><ele>880.6</ele><time>2015-07-07T06:45:24Z</time></trkpt><trkpt lat="40.253700" lon="-5.686910"><ele>879.6</ele><time>2015-07-07T06:45:51Z</time></trkpt><trkpt lat="40.253540" lon="-5.687180"><ele>875.0</ele><time>2015-07-07T06:46:18Z</time></trkpt><trkpt lat="40.253520" lon="-5.687230"><ele>874.1</ele><time>2015-07-07T06:46:45Z</time></trkpt><trkpt lat="40.253340" lon="-5.687550"><ele>871.9</ele><time>2015-07-07T06:47:12Z</time></trkpt><trkpt lat="40.253300" lon="-5.687620"><ele>872.5</ele><time>2015-07-07T06:47:39Z</time></trkpt><trkpt lat="40.253180" lon="-5.687830"><ele>872.9</ele><time>2015-07-07T06:48:06Z</time></trkpt><trkpt lat="40.252950" lon="-5.688130"><ele>870.3</ele><time>2015-07-07T06:48:33Z</time></trkpt><trkpt lat="40.252520" lon="-5.688640"><ele>872.2</ele><time>2015-07-07T06:49:00Z</time></trkpt><trkpt lat="40.252320" lon="-5.689260"><ele>860.3</ele><time>2015-07-07T06:49:27Z</time></trkpt><trkpt lat="40.252310" lon="-5.689330"><ele>858.9</ele><time>2015-07-07T06:49:54Z</time></trkpt><trkpt lat="40.252230" lon="-5.689550"><ele>855.2</ele><time>2015-07-07T06:50:21Z</time></trkpt><trkpt lat="40.252180" lon="-5.689680"><ele>853.3</ele><time>2015-07-07T06:50:48Z</time></trkpt><trkpt lat="40.251980" lon="-5.689960"><ele>853.3</ele><time>2015-07-07T06:51:15Z</time></trkpt><trkpt lat="40.251920" lon="-5.690030"><ele>853.4</ele><time>2015-07-07T06:51:42Z</time></trkpt><trkpt lat="40.251870" lon="-5.690090"><ele>854.1</ele><time>2015-07-07T06:52:09Z</time></trkpt><trkpt lat="40.251740" lon="-5.690340"><ele>853.0</ele><time>2015-07-07T06:52:36Z</time></trkpt><trkpt lat="40.251350" lon="-5.691050"><ele>851.4</ele><time>2015-07-07T06:53:03Z</time></trkpt><trkpt lat="40.250980" lon="-5.691780"><ele>850.5</ele><time>2015-07-07T06:53:30Z</time></trkpt><trkpt lat="40.250820" lon="-5.692170"><ele>849.3</ele><time>2015-07-07T06:53:57Z</time></trkpt><trkpt lat="40.250700" lon="-5.692480"><ele>850.5</ele><time>2015-07-07T06:54:24Z</time></trkpt><trkpt lat="40.250690" lon="-5.692520"><ele>850.3</ele><time>2015-07-07T06:54:51Z</time></trkpt><trkpt lat="40.250670" lon="-5.692710"><ele>846.3</ele><time>2015-07-07T06:55:18Z</time></trkpt><trkpt lat="40.250660" lon="-5.692890"><ele>841.7</ele><time>2015-07-07T06:55:45Z</time></trkpt><trkpt lat="40.250620" lon="-5.693090"><ele>837.6</ele><time>2015-07-07T06:56:12Z</time></trkpt><trkpt lat="40.250590" lon="-5.693210"><ele>835.5</ele><time>2015-07-07T06:56:39Z</time></trkpt><trkpt lat="40.250460" lon="-5.693470"><ele>833.2</ele><time>2015-07-07T06:57:06Z</time></trkpt><trkpt lat="40.250100" lon="-5.693990"><ele>831.5</ele><time>2015-07-07T06:57:33Z</time></trkpt><trkpt lat="40.250050" lon="-5.694100"><ele>830.0</ele><time>2015-07-07T06:58:00Z</time></trkpt><trkpt lat="40.249910" lon="-5.694380"><ele>828.9</ele><time>2015-07-07T06:58:27Z</time></trkpt><trkpt lat="40.249580" lon="-5.694990"><ele>828.4</ele><time>2015-07-07T06:58:54Z</time></trkpt><trkpt lat="40.249520" lon="-5.695110"><ele>827.7</ele><time>2015-07-07T06:59:21Z</time></trkpt><trkpt lat="40.249510" lon="-5.695090"><ele>828.3</ele><time>2015-07-07T06:59:48Z</time></trkpt><trkpt lat="40.249470" lon="-5.695140"><ele>828.3</ele><time>2015-07-07T07:00:15Z</time></trkpt><trkpt lat="40.249470" lon="-5.695160"><ele>827.9</ele><time>2015-07-07T07:00:42Z</time></trkpt><trkpt lat="40.249500" lon="-5.695180"><ele>826.8</ele><time>2015-07-07T07:01:09Z</time></trkpt><trkpt lat="40.249450" lon="-5.695300"><ele>825.3</ele><time>2015-07-07T07:01:36Z</time></trkpt><trkpt lat="40.249090" lon="-5.695980"><ele>821.9</ele><time>2015-07-07T07:02:03Z</time></trkpt><trkpt lat="40.248890" lon="-5.696420"><ele>817.4</ele><time>2015-07-07T07:02:30Z</time></trkpt><trkpt lat="40.248890" lon="-5.696640"><ele>813.5</ele><time>2015-07-07T07:02:57Z</time></trkpt><trkpt lat="40.248870" lon="-5.696850"><ele>813.4</ele><time>2015-07-07T07:03:24Z</time></trkpt><trkpt lat="40.248820" lon="-5.696950"><ele>815.1</ele><time>2015-07-07T07:03:51Z</time></trkpt><trkpt lat="40.248810" lon="-5.696980"><ele>815.1</ele><time>2015-07-07T07:04:18Z</time></trkpt><trkpt lat="40.248770" lon="-5.697060"><ele>815.4</ele><time>2015-07-07T07:04:45Z</time></trkpt><trkpt lat="40.248660" lon="-5.697230"><ele>815.5</ele><time>2015-07-07T07:05:12Z</time></trkpt><trkpt lat="40.248540" lon="-5.697520"><ele>814.1</ele><time>2015-07-07T07:05:39Z</time></trkpt><trkpt lat="40.248370" lon="-5.697860"><ele>811.2</ele><time>2015-07-07T07:06:06Z</time></trkpt><trkpt lat="40.248360" lon="-5.697910"><ele>810.2</ele><time>2015-07-07T07:06:33Z</time></trkpt><trkpt lat="40.248210" lon="-5.698190"><ele>808.5</ele><time>2015-07-07T07:07:00Z</time></trkpt><trkpt lat="40.247900" lon="-5.698660"><ele>807.5</ele><time>2015-07-07T07:07:27Z</time></trkpt><trkpt lat="40.247510" lon="-5.698920"><ele>806.2</ele><time>2015-07-07T07:07:54Z</time></trkpt><trkpt lat="40.247070" lon="-5.698990"><ele>815.0</ele><time>2015-07-07T07:08:21Z</time></trkpt><trkpt lat="40.246810" lon="-5.699360"><ele>814.5</ele><time>2015-07-07T07:08:48Z</time></trkpt><trkpt lat="40.246730" lon="-5.699610"><ele>813.0</ele><time>2015-07-07T07:09:15Z</time></trkpt><trkpt lat="40.246710" lon="-5.700010"><ele>803.2</ele><time>2015-07-07T07:09:42Z</time></trkpt><trkpt lat="40.246710" lon="-5.700060"><ele>802.6</ele><time>2015-07-07T07:10:09Z</time></trkpt><trkpt lat="40.246630" lon="-5.700470"><ele>802.1</ele><time>2015-07-07T07:10:36Z</time></trkpt><trkpt lat="40.246580" lon="-5.700690"><ele>801.6</ele><time>2015-07-07T07:11:03Z</time></trkpt><trkpt lat="40.246550" lon="-5.700850"><ele>799.8</ele><time>2015-07-07T07:11:30Z</time></trkpt><trkpt lat="40.246450" lon="-5.701160"><ele>798.5</ele><time>2015-07-07T07:11:57Z</time></trkpt><trkpt lat="40.246430" lon="-5.701230"><ele>798.0</ele><time>2015-07-07T07:12:24Z</time></trkpt><trkpt lat="40.246390" lon="-5.701370"><ele>796.4</ele><time>2015-07-07T07:12:51Z</time></trkpt><trkpt lat="40.246300" lon="-5.701670"><ele>793.6</ele><time>2015-07-07T07:13:18Z</time></trkpt><trkpt lat="40.246140" lon="-5.702070"><ele>788.7</ele><time>2015-07-07T07:13:45Z</time></trkpt><trkpt lat="40.246030" lon="-5.702250"><ele>788.2</ele><time>2015-07-07T07:14:12Z</time></trkpt><trkpt lat="40.245940" lon="-5.702450"><ele>789.1</ele><time>2015-07-07T07:14:39Z</time></trkpt><trkpt lat="40.245790" lon="-5.702710"><ele>789.7</ele><time>2015-07-07T07:15:06Z</time></trkpt><trkpt lat="40.245700" lon="-5.702970"><ele>792.7</ele><time>2015-07-07T07:15:33Z</time></trkpt><trkpt lat="40.245690" lon="-5.703040"><ele>792.8</ele><time>2015-07-07T07:16:00Z</time></trkpt><trkpt lat="40.245710" lon="-5.703230"><ele>790.9</ele><time>2015-07-07T07:16:27Z</time></trkpt><trkpt lat="40.245630" lon="-5.703590"><ele>788.8</ele><time>2015-07-07T07:16:54Z</time></trkpt><trkpt lat="40.245570" lon="-5.703850"><ele>784.7</ele><time>2015-07-07T07:17:21Z</time></trkpt><trkpt lat="40.245450" lon="-5.704070"><ele>783.8</ele><time>2015-07-07T07:17:48Z</time></trkpt><trkpt lat="40.245390" lon="-5.704150"><ele>783.4</ele><time>2015-07-07T07:18:15Z</time></trkpt><trkpt lat="40.245350" lon="-5.704260"><ele>781.9</ele><time>2015-07-07T07:18:42Z</time></trkpt><trkpt lat="40.245260" lon="-5.704420"><ele>779.1</ele><time>2015-07-07T07:19:09Z</time></trkpt><trkpt lat="40.245190" lon="-5.704530"><ele>778.9</ele><time>2015-07-07T07:19:36Z</time></trkpt><trkpt lat="40.244600" lon="-5.705590"><ele>773.8</ele><time>2015-07-07T07:20:03Z</time></trkpt><trkpt lat="40.244340" lon="-5.705800"><ele>771.2</ele><time>2015-07-07T07:20:30Z</time></trkpt><trkpt lat="40.243850" lon="-5.706090"><ele>775.3</ele><time>2015-07-07T07:20:57Z</time></trkpt><trkpt lat="40.243490" lon="-5.706060"><ele>776.9</ele><time>2015-07-07T07:21:24Z</time></trkpt><trkpt lat="40.243350" lon="-5.706100"><ele>777.0</ele><time>2015-07-07T07:21:51Z</time></trkpt><trkpt lat="40.243350" lon="-5.706100"><ele>777.0</ele><time>2015-07-07T07:22:18Z</time></trkpt><trkpt lat="40.243200" lon="-5.706150"><ele>777.8</ele><time>2015-07-07T07:22:45Z</time></trkpt><trkpt lat="40.243110" lon="-5.706300"><ele>777.0</ele><time>2015-07-07T07:23:12Z</time></trkpt><trkpt lat="40.243020" lon="-5.706390"><ele>775.9</ele><time>2015-07-07T07:23:39Z</time></trkpt><trkpt lat="40.242940" lon="-5.706460"><ele>775.3</ele><time>2015-07-07T07:24:06Z</time></trkpt><trkpt lat="40.242750" lon="-5.706660"><ele>773.9</ele><time>2015-07-07T07:24:33Z</time></trkpt><trkpt lat="40.242470" lon="-5.706650"><ele>773.4</ele><time>2015-07-07T07:25:00Z</time></trkpt><trkpt lat="40.242100" lon="-5.706840"><ele>776.6</ele><time>2015-07-07T07:25:27Z</time></trkpt><trkpt lat="40.241860" lon="-5.707230"><ele>773.6</ele><time>2015-07-07T07:25:54Z</time></trkpt><trkpt lat="40.241820" lon="-5.707310"><ele>772.7</ele><time>2015-07-07T07:26:21Z</time></trkpt><trkpt lat="40.241570" lon="-5.707670"><ele>770.0</ele><time>2015-07-07T07:26:48Z</time></trkpt><trkpt lat="40.241430" lon="-5.707990"><ele>767.5</ele><time>2015-07-07T07:27:15Z</time></trkpt><trkpt lat="40.241290" lon="-5.708350"><ele>764.8</ele><time>2015-07-07T07:27:42Z</time></trkpt><trkpt lat="40.241140" lon="-5.708700"><ele>760.7</ele><time>2015-07-07T07:28:09Z</time></trkpt><trkpt lat="40.241070" lon="-5.708810"><ele>760.6</ele><time>2015-07-07T07:28:36Z</time></trkpt><trkpt lat="40.240830" lon="-5.709720"><ele>759.1</ele><time>2015-07-07T07:29:03Z</time></trkpt><trkpt lat="40.240310" lon="-5.710460"><ele>753.2</ele><time>2015-07-07T07:29:30Z</time></trkpt><trkpt lat="40.239990" lon="-5.710670"><ele>754.7</ele><time>2015-07-07T07:29:57Z</time></trkpt><trkpt lat="40.239840" lon="-5.710810"><ele>752.3</ele><time>2015-07-07T07:30:24Z</time></trkpt><trkpt lat="40.239650" lon="-5.711040"><ele>751.3</ele><time>2015-07-07T07:30:51Z</time></trkpt><trkpt lat="40.239550" lon="-5.711360"><ele>750.3</ele><time>2015-07-07T07:31:18Z</time></trkpt><trkpt lat="40.239530" lon="-5.711430"><ele>750.1</ele><time>2015-07-07T07:31:45Z</time></trkpt><trkpt lat="40.239440" lon="-5.711720"><ele>748.3</ele><time>2015-07-07T07:32:12Z</time></trkpt><trkpt lat="40.239370" lon="-5.711850"><ele>747.0</ele><time>2015-07-07T07:32:39Z</time></trkpt><trkpt lat="40.239260" lon="-5.712040"><ele>745.5</ele><time>2015-07-07T07:33:06Z</time></trkpt><trkpt lat="40.239220" lon="-5.712190"><ele>744.3</ele><time>2015-07-07T07:33:33Z</time></trkpt><trkpt lat="40.239100" lon="-5.712500"><ele>742.7</ele><time>2015-07-07T07:34:00Z</time></trkpt><trkpt lat="40.238990" lon="-5.712620"><ele>742.9</ele><time>2015-07-07T07:34:27Z</time></trkpt><trkpt lat="40.238870" lon="-5.713020"><ele>740.6</ele><time>2015-07-07T07:34:54Z</time></trkpt><trkpt lat="40.238850" lon="-5.713720"><ele>736.4</ele><time>2015-07-07T07:35:21Z</time></trkpt><trkpt lat="40.238740" lon="-5.713910"><ele>736.0</ele><time>2015-07-07T07:35:48Z</time></trkpt><trkpt lat="40.238710" lon="-5.714020"><ele>735.9</ele><time>2015-07-07T07:36:15Z</time></trkpt><trkpt lat="40.238380" lon="-5.714520"><ele>738.4</ele><time>2015-07-07T07:36:42Z</time></trkpt><trkpt lat="40.238050" lon="-5.714930"><ele>738.6</ele><time>2015-07-07T07:37:09Z</time></trkpt><trkpt lat="40.237530" lon="-5.715250"><ele>735.7</ele><time>2015-07-07T07:37:36Z</time></trkpt><trkpt lat="40.237450" lon="-5.715290"><ele>735.3</ele><time>2015-07-07T07:38:03Z</time></trkpt><trkpt lat="40.236920" lon="-5.715640"><ele>736.3</ele><time>2015-07-07T07:38:30Z</time></trkpt><trkpt lat="40.236730" lon="-5.715800"><ele>737.5</ele><time>2015-07-07T07:38:57Z</time></trkpt><trkpt lat="40.236580" lon="-5.716050"><ele>736.4</ele><time>2015-07-07T07:39:24Z</time></trkpt><trkpt lat="40.236560" lon="-5.716090"><ele>736.3</ele><time>2015-07-07T07:39:51Z</time></trkpt><trkpt lat="40.236490" lon="-5.716240"><ele>734.4</ele><time>2015-07-07T07:40:18Z</time></trkpt><trkpt lat="40.236400" lon="-5.716450"><ele>731.3</ele><time>2015-07-07T07:40:45Z</time></trkpt><trkpt lat="40.235910" lon="-5.717180"><ele>733.1</ele><time>2015-07-07T07:41:12Z</time></trkpt><trkpt lat="40.235820" lon="-5.717420"><ele>730.4</ele><time>2015-07-07T07:41:39Z</time></trkpt><trkpt lat="40.235730" lon="-5.717630"><ele>727.7</ele><time>2015-07-07T07:42:06Z</time></trkpt><trkpt lat="40.235640" lon="-5.717850"><ele>724.9</ele><time>2015-07-07T07:42:33Z</time></trkpt><trkpt lat="40.235620" lon="-5.717900"><ele>724.3</ele><time>2015-07-07T07:43:00Z</time></trkpt><trkpt lat="40.235560" lon="-5.718340"><ele>717.8</ele><time>2015-07-07T07:43:27Z</time></trkpt><trkpt lat="40.235530" lon="-5.718440"><ele>717.8</ele><time>2015-07-07T07:43:54Z</time></trkpt><trkpt lat="40.235510" lon="-5.718550"><ele>717.1</ele><time>2015-07-07T07:44:21Z</time></trkpt><trkpt lat="40.235500" lon="-5.718630"><ele>716.3</ele><time>2015-07-07T07:44:48Z</time></trkpt><trkpt lat="40.235470" lon="-5.718720"><ele>715.5</ele><time>2015-07-07T07:45:15Z</time></trkpt><trkpt lat="40.235380" lon="-5.719000"><ele>713.0</ele><time>2015-07-07T07:45:42Z</time></trkpt><trkpt lat="40.235250" lon="-5.719340"><ele>711.2</ele><time>2015-07-07T07:46:09Z</time></trkpt><trkpt lat="40.235000" lon="-5.719940"><ele>715.6</ele><time>2015-07-07T07:46:36Z</time></trkpt><trkpt lat="40.234710" lon="-5.721080"><ele>711.1</ele><time>2015-07-07T07:47:03Z</time></trkpt><trkpt lat="40.234480" lon="-5.721970"><ele>712.0</ele><time>2015-07-07T07:47:30Z</time></trkpt><trkpt lat="40.234350" lon="-5.722560"><ele>711.4</ele><time>2015-07-07T07:47:57Z</time></trkpt><trkpt lat="40.234310" lon="-5.722810"><ele>712.4</ele><time>2015-07-07T07:48:24Z</time></trkpt><trkpt lat="40.234330" lon="-5.722840"><ele>712.0</ele><time>2015-07-07T07:48:51Z</time></trkpt><trkpt lat="40.234370" lon="-5.722890"><ele>711.2</ele><time>2015-07-07T07:49:18Z</time></trkpt><trkpt lat="40.234370" lon="-5.722900"><ele>711.2</ele><time>2015-07-07T07:49:45Z</time></trkpt><trkpt lat="40.234450" lon="-5.722920"><ele>709.4</ele><time>2015-07-07T07:50:12Z</time></trkpt><trkpt lat="40.234690" lon="-5.723040"><ele>705.5</ele><time>2015-07-07T07:50:39Z</time></trkpt><trkpt lat="40.234740" lon="-5.723050"><ele>704.7</ele><time>2015-07-07T07:51:06Z</time></trkpt><trkpt lat="40.234910" lon="-5.723110"><ele>702.7</ele><time>2015-07-07T07:51:33Z</time></trkpt><trkpt lat="40.234980" lon="-5.723250"><ele>702.1</ele><time>2015-07-07T07:52:00Z</time></trkpt><trkpt lat="40.234980" lon="-5.723560"><ele>701.0</ele><time>2015-07-07T07:52:27Z</time></trkpt><trkpt lat="40.235170" lon="-5.724090"><ele>696.0</ele><time>2015-07-07T07:52:54Z</time></trkpt><trkpt lat="40.235190" lon="-5.724140"><ele>695.6</ele><time>2015-07-07T07:53:21Z</time></trkpt><trkpt lat="40.235350" lon="-5.724370"><ele>692.3</ele><time>2015-07-07T07:53:48Z</time></trkpt><trkpt lat="40.235440" lon="-5.724410"><ele>690.9</ele><time>2015-07-07T07:54:15Z</time></trkpt><trkpt lat="40.235660" lon="-5.724570"><ele>688.8</ele><time>2015-07-07T07:54:42Z</time></trkpt><trkpt lat="40.235690" lon="-5.724590"><ele>688.7</ele><time>2015-07-07T07:55:09Z</time></trkpt><trkpt lat="40.235840" lon="-5.724880"><ele>689.1</ele><time>2015-07-07T07:55:36Z</time></trkpt><trkpt lat="40.235740" lon="-5.725210"><ele>689.2</ele><time>2015-07-07T07:56:03Z</time></trkpt><trkpt lat="40.235740" lon="-5.725250"><ele>689.1</ele><time>2015-07-07T07:56:30Z</time></trkpt><trkpt lat="40.235630" lon="-5.725650"><ele>688.1</ele><time>2015-07-07T07:56:57Z</time></trkpt><trkpt lat="40.235590" lon="-5.726000"><ele>687.8</ele><time>2015-07-07T07:57:24Z</time></trkpt><trkpt lat="40.235590" lon="-5.726030"><ele>687.8</ele><time>2015-07-07T07:57:51Z</time></trkpt><trkpt lat="40.235540" lon="-5.726490"><ele>689.2</ele><time>2015-07-07T07:58:18Z</time></trkpt><trkpt lat="40.235480" lon="-5.726650"><ele>689.8</ele><time>2015-07-07T07:58:45Z</time></trkpt><trkpt lat="40.235500" lon="-5.726770"><ele>688.9</ele><time>2015-07-07T07:59:12Z</time></trkpt><trkpt lat="40.235520" lon="-5.727700"><ele>687.6</ele><time>2015-07-07T07:59:39Z</time></trkpt><trkpt lat="40.235380" lon="-5.728350"><ele>684.3</ele><time>2015-07-07T08:00:06Z</time></trkpt><trkpt lat="40.235170" lon="-5.728950"><ele>680.6</ele><time>2015-07-07T08:00:33Z</time></trkpt><trkpt lat="40.234830" lon="-5.729500"><ele>675.7</ele><time>2015-07-07T08:01:00Z</time></trkpt><trkpt lat="40.234720" lon="-5.729740"><ele>671.8</ele><time>2015-07-07T08:01:27Z</time></trkpt><trkpt lat="40.234580" lon="-5.729970"><ele>671.6</ele><time>2015-07-07T08:01:54Z</time></trkpt><trkpt lat="40.234410" lon="-5.730200"><ele>672.1</ele><time>2015-07-07T08:02:21Z</time></trkpt><trkpt lat="40.234270" lon="-5.730390"><ele>672.3</ele><time>2015-07-07T08:02:48Z</time></trkpt><trkpt lat="40.233750" lon="-5.730950"><ele>674.8</ele><time>2015-07-07T08:03:15Z</time></trkpt><trkpt lat="40.233420" lon="-5.731620"><ele>666.1</ele><time>2015-07-07T08:03:42Z</time></trkpt><trkpt lat="40.233180" lon="-5.731880"><ele>669.0</ele><time>2015-07-07T08:04:09Z</time></trkpt><trkpt lat="40.232930" lon="-5.732210"><ele>670.4</ele><time>2015-07-07T08:04:36Z</time></trkpt><trkpt lat="40.232800" lon="-5.732800"><ele>663.4</ele><time>2015-07-07T08:05:03Z</time></trkpt><trkpt lat="40.232330" lon="-5.733270"><ele>672.2</ele><time>2015-07-07T08:05:30Z</time></trkpt><trkpt lat="40.231520" lon="-5.733780"><ele>673.7</ele><time>2015-07-07T08:05:57Z</time></trkpt><trkpt lat="40.230830" lon="-5.734310"><ele>671.9</ele><time>2015-07-07T08:06:24Z</time></trkpt><trkpt lat="40.230550" lon="-5.734470"><ele>670.7</ele><time>2015-07-07T08:06:51Z</time></trkpt><trkpt lat="40.230300" lon="-5.734680"><ele>669.2</ele><time>2015-07-07T08:07:18Z</time></trkpt><trkpt lat="40.230220" lon="-5.734760"><ele>668.6</ele><time>2015-07-07T08:07:45Z</time></trkpt><trkpt lat="40.230130" lon="-5.734840"><ele>667.5</ele><time>2015-07-07T08:08:12Z</time></trkpt><trkpt lat="40.229890" lon="-5.735140"><ele>663.7</ele><time>2015-07-07T08:08:39Z</time></trkpt><trkpt lat="40.229820" lon="-5.735230"><ele>662.6</ele><time>2015-07-07T08:09:06Z</time></trkpt><trkpt lat="40.229740" lon="-5.735340"><ele>660.8</ele><time>2015-07-07T08:09:33Z</time></trkpt><trkpt lat="40.229650" lon="-5.735450"><ele>659.2</ele><time>2015-07-07T08:10:00Z</time></trkpt><trkpt lat="40.229420" lon="-5.735720"><ele>655.7</ele><time>2015-07-07T08:10:27Z</time></trkpt><trkpt lat="40.229270" lon="-5.735890"><ele>654.1</ele><time>2015-07-07T08:10:54Z</time></trkpt><trkpt lat="40.229230" lon="-5.735960"><ele>653.8</ele><time>2015-07-07T08:11:21Z</time></trkpt><trkpt lat="40.229120" lon="-5.736190"><ele>652.1</ele><time>2015-07-07T08:11:48Z</time></trkpt><trkpt lat="40.229010" lon="-5.736400"><ele>649.2</ele><time>2015-07-07T08:12:15Z</time></trkpt><trkpt lat="40.228980" lon="-5.736760"><ele>642.2</ele><time>2015-07-07T08:12:42Z</time></trkpt><trkpt lat="40.228970" lon="-5.736870"><ele>640.6</ele><time>2015-07-07T08:13:09Z</time></trkpt><trkpt lat="40.228970" lon="-5.737130"><ele>637.3</ele><time>2015-07-07T08:13:36Z</time></trkpt><trkpt lat="40.229040" lon="-5.737370"><ele>635.8</ele><time>2015-07-07T08:14:03Z</time></trkpt><trkpt lat="40.228990" lon="-5.737730"><ele>634.7</ele><time>2015-07-07T08:14:30Z</time></trkpt><trkpt lat="40.228400" lon="-5.738690"><ele>631.9</ele><time>2015-07-07T08:14:57Z</time></trkpt><trkpt lat="40.227840" lon="-5.739300"><ele>633.1</ele><time>2015-07-07T08:15:24Z</time></trkpt><trkpt lat="40.227680" lon="-5.739550"><ele>629.6</ele><time>2015-07-07T08:15:51Z</time></trkpt><trkpt lat="40.227620" lon="-5.739800"><ele>626.6</ele><time>2015-07-07T08:16:18Z</time></trkpt><trkpt lat="40.227500" lon="-5.740300"><ele>623.1</ele><time>2015-07-07T08:16:45Z</time></trkpt><trkpt lat="40.227280" lon="-5.740670"><ele>625.6</ele><time>2015-07-07T08:17:12Z</time></trkpt><trkpt lat="40.226990" lon="-5.741000"><ele>626.0</ele><time>2015-07-07T08:17:39Z</time></trkpt><trkpt lat="40.226490" lon="-5.741440"><ele>625.2</ele><time>2015-07-07T08:18:06Z</time></trkpt><trkpt lat="40.226250" lon="-5.741690"><ele>623.1</ele><time>2015-07-07T08:18:33Z</time></trkpt><trkpt lat="40.226020" lon="-5.742070"><ele>622.8</ele><time>2015-07-07T08:19:00Z</time></trkpt><trkpt lat="40.225780" lon="-5.742250"><ele>621.5</ele><time>2015-07-07T08:19:27Z</time></trkpt><trkpt lat="40.225040" lon="-5.742230"><ele>622.5</ele><time>2015-07-07T08:19:54Z</time></trkpt><trkpt lat="40.224840" lon="-5.742190"><ele>624.4</ele><time>2015-07-07T08:20:21Z</time></trkpt><trkpt lat="40.224840" lon="-5.742180"><ele>624.5</ele><time>2015-07-07T08:20:48Z</time></trkpt><trkpt lat="40.224750" lon="-5.742120"><ele>625.5</ele><time>2015-07-07T08:21:15Z</time></trkpt><trkpt lat="40.224490" lon="-5.742010"><ele>626.1</ele><time>2015-07-07T08:21:42Z</time></trkpt><trkpt lat="40.223910" lon="-5.742360"><ele>623.3</ele><time>2015-07-07T08:22:09Z</time></trkpt><trkpt lat="40.223100" lon="-5.742730"><ele>628.9</ele><time>2015-07-07T08:22:36Z</time></trkpt><trkpt lat="40.222850" lon="-5.742970"><ele>625.8</ele><time>2015-07-07T08:23:03Z</time></trkpt><trkpt lat="40.222850" lon="-5.743010"><ele>624.7</ele><time>2015-07-07T08:23:30Z</time></trkpt><trkpt lat="40.222810" lon="-5.743020"><ele>625.2</ele><time>2015-07-07T08:23:57Z</time></trkpt><trkpt lat="40.222450" lon="-5.743570"><ele>621.6</ele><time>2015-07-07T08:24:24Z</time></trkpt><trkpt lat="40.222410" lon="-5.743630"><ele>621.7</ele><time>2015-07-07T08:24:51Z</time></trkpt><trkpt lat="40.222260" lon="-5.744050"><ele>620.9</ele><time>2015-07-07T08:25:18Z</time></trkpt><trkpt lat="40.222230" lon="-5.744540"><ele>617.8</ele><time>2015-07-07T08:25:45Z</time></trkpt><trkpt lat="40.222170" lon="-5.744790"><ele>616.5</ele><time>2015-07-07T08:26:12Z</time></trkpt><trkpt lat="40.222000" lon="-5.745150"><ele>615.5</ele><time>2015-07-07T08:26:39Z</time></trkpt><trkpt lat="40.221930" lon="-5.745400"><ele>613.1</ele><time>2015-07-07T08:27:06Z</time></trkpt><trkpt lat="40.221850" lon="-5.745650"><ele>609.9</ele><time>2015-07-07T08:27:33Z</time></trkpt><trkpt lat="40.221750" lon="-5.745910"><ele>607.3</ele><time>2015-07-07T08:28:00Z</time></trkpt><trkpt lat="40.221700" lon="-5.746030"><ele>607.2</ele><time>2015-07-07T08:28:27Z</time></trkpt><trkpt lat="40.221120" lon="-5.746810"><ele>609.7</ele><time>2015-07-07T08:28:54Z</time></trkpt><trkpt lat="40.221200" lon="-5.747100"><ele>604.9</ele><time>2015-07-07T08:29:21Z</time></trkpt><trkpt lat="40.221490" lon="-5.747530"><ele>604.6</ele><time>2015-07-07T08:29:48Z</time></trkpt><trkpt lat="40.221410" lon="-5.747880"><ele>604.8</ele><time>2015-07-07T08:30:15Z</time></trkpt><trkpt lat="40.220730" lon="-5.749100"><ele>599.0</ele><time>2015-07-07T08:30:42Z</time></trkpt><trkpt lat="40.220640" lon="-5.749230"><ele>597.8</ele><time>2015-07-07T08:31:09Z</time></trkpt><trkpt lat="40.220560" lon="-5.749210"><ele>597.7</ele><time>2015-07-07T08:31:36Z</time></trkpt><trkpt lat="40.220430" lon="-5.749130"><ele>598.2</ele><time>2015-07-07T08:32:03Z</time></trkpt><trkpt lat="40.220440" lon="-5.749110"><ele>598.3</ele><time>2015-07-07T08:32:30Z</time></trkpt><trkpt lat="40.220430" lon="-5.749090"><ele>598.4</ele><time>2015-07-07T08:32:57Z</time></trkpt><trkpt lat="40.220720" lon="-5.749190"><ele>598.4</ele><time>2015-07-07T08:33:24Z</time></trkpt><trkpt lat="40.220680" lon="-5.749220"><ele>598.0</ele><time>2015-07-07T08:33:51Z</time></trkpt><trkpt lat="40.220290" lon="-5.749120"><ele>598.2</ele><time>2015-07-07T08:34:18Z</time></trkpt><trkpt lat="40.219960" lon="-5.749370"><ele>596.9</ele><time>2015-07-07T08:34:45Z</time></trkpt><trkpt lat="40.219620" lon="-5.749620"><ele>596.6</ele><time>2015-07-07T08:35:12Z</time></trkpt><trkpt lat="40.219220" lon="-5.749950"><ele>596.3</ele><time>2015-07-07T08:35:39Z</time></trkpt><trkpt lat="40.218890" lon="-5.750160"><ele>598.8</ele><time>2015-07-07T08:36:06Z</time></trkpt><trkpt lat="40.218690" lon="-5.750550"><ele>599.6</ele><time>2015-07-07T08:36:33Z</time></trkpt><trkpt lat="40.218540" lon="-5.750930"><ele>597.9</ele><time>2015-07-07T08:37:00Z</time></trkpt><trkpt lat="40.218240" lon="-5.751220"><ele>600.0</ele><time>2015-07-07T08:37:27Z</time></trkpt><trkpt lat="40.218140" lon="-5.751450"><ele>598.8</ele><time>2015-07-07T08:37:54Z</time></trkpt><trkpt lat="40.218110" lon="-5.751510"><ele>598.0</ele><time>2015-07-07T08:38:21Z</time></trkpt><trkpt lat="40.217970" lon="-5.751830"><ele>596.2</ele><time>2015-07-07T08:38:48Z</time></trkpt><trkpt lat="40.217650" lon="-5.752200"><ele>598.3</ele><time>2015-07-07T08:39:15Z</time></trkpt><trkpt lat="40.217290" lon="-5.752530"><ele>599.1</ele><time>2015-07-07T08:39:42Z</time></trkpt><trkpt lat="40.217160" lon="-5.752740"><ele>598.9</ele><time>2015-07-07T08:40:09Z</time></trkpt><trkpt lat="40.216910" lon="-5.753090"><ele>597.9</ele><time>2015-07-07T08:40:36Z</time></trkpt><trkpt lat="40.216610" lon="-5.753520"><ele>592.4</ele><time>2015-07-07T08:41:03Z</time></trkpt><trkpt lat="40.216200" lon="-5.753720"><ele>593.6</ele><time>2015-07-07T08:41:30Z</time></trkpt><trkpt lat="40.215770" lon="-5.753880"><ele>597.1</ele><time>2015-07-07T08:41:57Z</time></trkpt><trkpt lat="40.215470" lon="-5.754230"><ele>592.2</ele><time>2015-07-07T08:42:24Z</time></trkpt><trkpt lat="40.215370" lon="-5.754360"><ele>590.7</ele><time>2015-07-07T08:42:51Z</time></trkpt><trkpt lat="40.215280" lon="-5.754810"><ele>589.0</ele><time>2015-07-07T08:43:18Z</time></trkpt><trkpt lat="40.215160" lon="-5.755280"><ele>591.9</ele><time>2015-07-07T08:43:45Z</time></trkpt><trkpt lat="40.215110" lon="-5.755700"><ele>584.0</ele><time>2015-07-07T08:44:12Z</time></trkpt><trkpt lat="40.214920" lon="-5.756190"><ele>582.6</ele><time>2015-07-07T08:44:39Z</time></trkpt><trkpt lat="40.214680" lon="-5.756770"><ele>584.4</ele><time>2015-07-07T08:45:06Z</time></trkpt><trkpt lat="40.214630" lon="-5.757100"><ele>580.3</ele><time>2015-07-07T08:45:33Z</time></trkpt><trkpt lat="40.214620" lon="-5.757190"><ele>579.3</ele><time>2015-07-07T08:46:00Z</time></trkpt><trkpt lat="40.214470" lon="-5.757780"><ele>579.7</ele><time>2015-07-07T08:46:27Z</time></trkpt><trkpt lat="40.214200" lon="-5.758250"><ele>580.5</ele><time>2015-07-07T08:46:54Z</time></trkpt><trkpt lat="40.214050" lon="-5.758460"><ele>579.5</ele><time>2015-07-07T08:47:21Z</time></trkpt><trkpt lat="40.213900" lon="-5.758690"><ele>578.7</ele><time>2015-07-07T08:47:48Z</time></trkpt><trkpt lat="40.213600" lon="-5.758960"><ele>579.3</ele><time>2015-07-07T08:48:15Z</time></trkpt><trkpt lat="40.213340" lon="-5.759290"><ele>577.6</ele><time>2015-07-07T08:48:42Z</time></trkpt><trkpt lat="40.212940" lon="-5.759720"><ele>576.9</ele><time>2015-07-07T08:49:09Z</time></trkpt><trkpt lat="40.212680" lon="-5.760130"><ele>575.9</ele><time>2015-07-07T08:49:36Z</time></trkpt><trkpt lat="40.212380" lon="-5.760280"><ele>576.8</ele><time>2015-07-07T08:50:03Z</time></trkpt><trkpt lat="40.212060" lon="-5.760600"><ele>574.4</ele><time>2015-07-07T08:50:30Z</time></trkpt><trkpt lat="40.211770" lon="-5.761010"><ele>575.5</ele><time>2015-07-07T08:50:57Z</time></trkpt><trkpt lat="40.211500" lon="-5.761460"><ele>576.0</ele><time>2015-07-07T08:51:24Z</time></trkpt><trkpt lat="40.211330" lon="-5.761840"><ele>573.5</ele><time>2015-07-07T08:51:51Z</time></trkpt><trkpt lat="40.210990" lon="-5.762170"><ele>572.1</ele><time>2015-07-07T08:52:18Z</time></trkpt><trkpt lat="40.210570" lon="-5.762340"><ele>576.0</ele><time>2015-07-07T08:52:45Z</time></trkpt><trkpt lat="40.210290" lon="-5.762730"><ele>574.2</ele><time>2015-07-07T08:53:12Z</time></trkpt><trkpt lat="40.210030" lon="-5.763110"><ele>575.2</ele><time>2015-07-07T08:53:39Z</time></trkpt><trkpt lat="40.209790" lon="-5.763590"><ele>576.7</ele><time>2015-07-07T08:54:06Z</time></trkpt><trkpt lat="40.209560" lon="-5.764110"><ele>575.1</ele><time>2015-07-07T08:54:33Z</time></trkpt><trkpt lat="40.209360" lon="-5.764670"><ele>569.7</ele><time>2015-07-07T08:55:00Z</time></trkpt><trkpt lat="40.209030" lon="-5.765150"><ele>566.1</ele><time>2015-07-07T08:55:27Z</time></trkpt><trkpt lat="40.208940" lon="-5.765290"><ele>565.4</ele><time>2015-07-07T08:55:54Z</time></trkpt><trkpt lat="40.208660" lon="-5.765700"><ele>570.2</ele><time>2015-07-07T08:56:21Z</time></trkpt><trkpt lat="40.208540" lon="-5.766140"><ele>569.1</ele><time>2015-07-07T08:56:48Z</time></trkpt><trkpt lat="40.208350" lon="-5.766600"><ele>568.9</ele><time>2015-07-07T08:57:15Z</time></trkpt><trkpt lat="40.208110" lon="-5.767020"><ele>567.0</ele><time>2015-07-07T08:57:42Z</time></trkpt><trkpt lat="40.207870" lon="-5.767410"><ele>566.4</ele><time>2015-07-07T08:58:09Z</time></trkpt><trkpt lat="40.207640" lon="-5.767820"><ele>565.2</ele><time>2015-07-07T08:58:36Z</time></trkpt><trkpt lat="40.207350" lon="-5.768180"><ele>566.8</ele><time>2015-07-07T08:59:03Z</time></trkpt><trkpt lat="40.207120" lon="-5.768570"><ele>568.2</ele><time>2015-07-07T08:59:30Z</time></trkpt><trkpt lat="40.206920" lon="-5.769020"><ele>568.1</ele><time>2015-07-07T08:59:57Z</time></trkpt><trkpt lat="40.206820" lon="-5.769390"><ele>565.2</ele><time>2015-07-07T09:00:24Z</time></trkpt><trkpt lat="40.206710" lon="-5.769670"><ele>563.8</ele><time>2015-07-07T09:00:51Z</time></trkpt><trkpt lat="40.206600" lon="-5.770060"><ele>560.6</ele><time>2015-07-07T09:01:18Z</time></trkpt><trkpt lat="40.206510" lon="-5.770500"><ele>557.3</ele><time>2015-07-07T09:01:45Z</time></trkpt><trkpt lat="40.206340" lon="-5.770930"><ele>553.2</ele><time>2015-07-07T09:02:12Z</time></trkpt><trkpt lat="40.206160" lon="-5.771400"><ele>554.3</ele><time>2015-07-07T09:02:39Z</time></trkpt><trkpt lat="40.206020" lon="-5.771880"><ele>554.6</ele><time>2015-07-07T09:03:06Z</time></trkpt><trkpt lat="40.205980" lon="-5.772020"><ele>554.3</ele><time>2015-07-07T09:03:33Z</time></trkpt><trkpt lat="40.205970" lon="-5.771830"><ele>555.1</ele><time>2015-07-07T09:04:00Z</time></trkpt><trkpt lat="40.205990" lon="-5.772150"><ele>554.0</ele><time>2015-07-07T09:04:27Z</time></trkpt><trkpt lat="40.206010" lon="-5.772170"><ele>553.8</ele><time>2015-07-07T09:04:54Z</time></trkpt><trkpt lat="40.206060" lon="-5.772500"><ele>553.6</ele><time>2015-07-07T09:05:21Z</time></trkpt><trkpt lat="40.206170" lon="-5.772900"><ele>553.8</ele><time>2015-07-07T09:05:48Z</time></trkpt><trkpt lat="40.206400" lon="-5.773190"><ele>551.9</ele><time>2015-07-07T09:06:15Z</time></trkpt><trkpt lat="40.206430" lon="-5.773200"><ele>551.6</ele><time>2015-07-07T09:06:42Z</time></trkpt><trkpt lat="40.207220" lon="-5.773300"><ele>549.7</ele><time>2015-07-07T09:07:09Z</time></trkpt><trkpt lat="40.207370" lon="-5.773320"><ele>550.4</ele><time>2015-07-07T09:07:36Z</time></trkpt><trkpt lat="40.207570" lon="-5.772900"><ele>547.8</ele><time>2015-07-07T09:08:03Z</time></trkpt><trkpt lat="40.207690" lon="-5.772380"><ele>548.0</ele><time>2015-07-07T09:08:30Z</time></trkpt><trkpt lat="40.207790" lon="-5.772050"><ele>549.6</ele><time>2015-07-07T09:08:57Z</time></trkpt><trkpt lat="40.207870" lon="-5.771910"><ele>550.0</ele><time>2015-07-07T09:09:24Z</time></trkpt><trkpt lat="40.208220" lon="-5.772080"><ele>549.8</ele><time>2015-07-07T09:09:51Z</time></trkpt><trkpt lat="40.208580" lon="-5.772330"><ele>549.1</ele><time>2015-07-07T09:10:18Z</time></trkpt><trkpt lat="40.208910" lon="-5.772480"><ele>548.0</ele><time>2015-07-07T09:10:45Z</time></trkpt><trkpt lat="40.209150" lon="-5.772650"><ele>548.0</ele><time>2015-07-07T09:11:12Z</time></trkpt><trkpt lat="40.209150" lon="-5.772730"><ele>548.0</ele><time>2015-07-07T09:11:39Z</time></trkpt><trkpt lat="40.208960" lon="-5.773260"><ele>546.5</ele><time>2015-07-07T09:12:06Z</time></trkpt><trkpt lat="40.208770" lon="-5.773720"><ele>546.0</ele><time>2015-07-07T09:12:33Z</time></trkpt><trkpt lat="40.208650" lon="-5.774000"><ele>546.3</ele><time>2015-07-07T09:13:00Z</time></trkpt><trkpt lat="40.208640" lon="-5.774070"><ele>546.2</ele><time>2015-07-07T09:13:27Z</time></trkpt><trkpt lat="40.208720" lon="-5.774480"><ele>547.2</ele><time>2015-07-07T09:13:54Z</time></trkpt><trkpt lat="40.208830" lon="-5.774910"><ele>549.3</ele><time>2015-07-07T09:14:21Z</time></trkpt><trkpt lat="40.208690" lon="-5.775410"><ele>549.7</ele><time>2015-07-07T09:14:48Z</time></trkpt><trkpt lat="40.208540" lon="-5.775830"><ele>551.5</ele><time>2015-07-07T09:15:15Z</time></trkpt><trkpt lat="40.208460" lon="-5.776160"><ele>549.5</ele><time>2015-07-07T09:15:42Z</time></trkpt><trkpt lat="40.208400" lon="-5.776600"><ele>545.7</ele><time>2015-07-07T09:16:09Z</time></trkpt><trkpt lat="40.208180" lon="-5.777080"><ele>545.5</ele><time>2015-07-07T09:16:36Z</time></trkpt><trkpt lat="40.208330" lon="-5.777510"><ele>547.0</ele><time>2015-07-07T09:17:03Z</time></trkpt><trkpt lat="40.208530" lon="-5.777810"><ele>547.0</ele><time>2015-07-07T09:17:30Z</time></trkpt><trkpt lat="40.208550" lon="-5.777880"><ele>547.0</ele><time>2015-07-07T09:17:57Z</time></trkpt><trkpt lat="40.208630" lon="-5.778400"><ele>548.1</ele><time>2015-07-07T09:18:24Z</time></trkpt><trkpt lat="40.208680" lon="-5.779110"><ele>549.5</ele><time>2015-07-07T09:18:51Z</time></trkpt><trkpt lat="40.208460" lon="-5.779240"><ele>547.6</ele><time>2015-07-07T09:19:18Z</time></trkpt><trkpt lat="40.208080" lon="-5.779460"><ele>544.3</ele><time>2015-07-07T09:19:45Z</time></trkpt><trkpt lat="40.207970" lon="-5.779880"><ele>544.6</ele><time>2015-07-07T09:20:12Z</time></trkpt><trkpt lat="40.207930" lon="-5.780100"><ele>544.2</ele><time>2015-07-07T09:20:39Z</time></trkpt><trkpt lat="40.207590" lon="-5.780250"><ele>541.1</ele><time>2015-07-07T09:21:06Z</time></trkpt><trkpt lat="40.207280" lon="-5.780630"><ele>537.6</ele><time>2015-07-07T09:21:33Z</time></trkpt><trkpt lat="40.206880" lon="-5.780920"><ele>535.6</ele><time>2015-07-07T09:22:00Z</time></trkpt><trkpt lat="40.206870" lon="-5.781350"><ele>536.4</ele><time>2015-07-07T09:22:27Z</time></trkpt><trkpt lat="40.206890" lon="-5.781890"><ele>535.0</ele><time>2015-07-07T09:22:54Z</time></trkpt><trkpt lat="40.206830" lon="-5.782410"><ele>532.3</ele><time>2015-07-07T09:23:21Z</time></trkpt><trkpt lat="40.206760" lon="-5.782970"><ele>531.4</ele><time>2015-07-07T09:23:48Z</time></trkpt><trkpt lat="40.206640" lon="-5.783540"><ele>531.5</ele><time>2015-07-07T09:24:15Z</time></trkpt><trkpt lat="40.206500" lon="-5.784020"><ele>531.1</ele><time>2015-07-07T09:24:42Z</time></trkpt><trkpt lat="40.206290" lon="-5.784390"><ele>530.4</ele><time>2015-07-07T09:25:09Z</time></trkpt><trkpt lat="40.206160" lon="-5.784590"><ele>530.7</ele><time>2015-07-07T09:25:36Z</time></trkpt><trkpt lat="40.206130" lon="-5.784620"><ele>530.7</ele><time>2015-07-07T09:26:03Z</time></trkpt><trkpt lat="40.205930" lon="-5.784850"><ele>530.0</ele><time>2015-07-07T09:26:30Z</time></trkpt><trkpt lat="40.205770" lon="-5.785000"><ele>528.3</ele><time>2015-07-07T09:26:57Z</time></trkpt><trkpt lat="40.205730" lon="-5.785010"><ele>527.9</ele><time>2015-07-07T09:27:24Z</time></trkpt><trkpt lat="40.205530" lon="-5.785230"><ele>525.9</ele><time>2015-07-07T09:27:51Z</time></trkpt><trkpt lat="40.205420" lon="-5.785600"><ele>527.2</ele><time>2015-07-07T09:28:18Z</time></trkpt><trkpt lat="40.205270" lon="-5.785700"><ele>526.5</ele><time>2015-07-07T09:28:45Z</time></trkpt><trkpt lat="40.205149" lon="-5.786007"><ele>527.9</ele><time>2015-07-07T09:29:12Z</time></trkpt><trkpt lat="40.204996" lon="-5.786157"><ele>526.3</ele><time>2015-07-07T09:29:39Z</time></trkpt><trkpt lat="40.204805" lon="-5.786306"><ele>523.9</ele><time>2015-07-07T09:30:06Z</time></trkpt><trkpt lat="40.204500" lon="-5.786455"><ele>521.3</ele><time>2015-07-07T09:30:33Z</time></trkpt><trkpt lat="40.204347" lon="-5.786804"><ele>524.2</ele><time>2015-07-07T09:31:00Z</time></trkpt><trkpt lat="40.204117" lon="-5.787202"><ele>525.7</ele><time>2015-07-07T09:31:27Z</time></trkpt><trkpt lat="40.203850" lon="-5.787551"><ele>526.0</ele><time>2015-07-07T09:31:54Z</time></trkpt><trkpt lat="40.203620" lon="-5.787899"><ele>525.1</ele><time>2015-07-07T09:32:21Z</time></trkpt><trkpt lat="40.203391" lon="-5.788148"><ele>523.4</ele><time>2015-07-07T09:32:48Z</time></trkpt><trkpt lat="40.203277" lon="-5.788297"><ele>523.0</ele><time>2015-07-07T09:33:15Z</time></trkpt><trkpt lat="40.203085" lon="-5.788646"><ele>523.1</ele><time>2015-07-07T09:33:42Z</time></trkpt><trkpt lat="40.202932" lon="-5.788895"><ele>523.6</ele><time>2015-07-07T09:34:09Z</time></trkpt><trkpt lat="40.202818" lon="-5.789144"><ele>522.5</ele><time>2015-07-07T09:34:36Z</time></trkpt><trkpt lat="40.202741" lon="-5.789393"><ele>521.8</ele><time>2015-07-07T09:35:03Z</time></trkpt><trkpt lat="40.202512" lon="-5.789592"><ele>520.1</ele><time>2015-07-07T09:35:30Z</time></trkpt><trkpt lat="40.202435" lon="-5.790040"><ele>520.9</ele><time>2015-07-07T09:35:57Z</time></trkpt><trkpt lat="40.202282" lon="-5.790389"><ele>520.7</ele><time>2015-07-07T09:36:24Z</time></trkpt><trkpt lat="40.202090" lon="-5.790887"><ele>517.1</ele><time>2015-07-07T09:36:51Z</time></trkpt><trkpt lat="40.202014" lon="-5.791086"><ele>515.4</ele><time>2015-07-07T09:37:18Z</time></trkpt><trkpt lat="40.201785" lon="-5.791235"><ele>515.4</ele><time>2015-07-07T09:37:45Z</time></trkpt><trkpt lat="40.201555" lon="-5.791534"><ele>515.5</ele><time>2015-07-07T09:38:12Z</time></trkpt><trkpt lat="40.201440" lon="-5.791932"><ele>515.2</ele><time>2015-07-07T09:38:39Z</time></trkpt><trkpt lat="40.201249" lon="-5.792231"><ele>516.5</ele><time>2015-07-07T09:39:06Z</time></trkpt><trkpt lat="40.201096" lon="-5.792380"><ele>516.5</ele><time>2015-07-07T09:39:33Z</time></trkpt><trkpt lat="40.200867" lon="-5.792679"><ele>516.1</ele><time>2015-07-07T09:40:00Z</time></trkpt><trkpt lat="40.200714" lon="-5.792978"><ele>516.7</ele><time>2015-07-07T09:40:27Z</time></trkpt><trkpt lat="40.200561" lon="-5.793227"><ele>516.4</ele><time>2015-07-07T09:40:54Z</time></trkpt><trkpt lat="40.200408" lon="-5.793575"><ele>515.5</ele><time>2015-07-07T09:41:21Z</time></trkpt><trkpt lat="40.200369" lon="-5.793924"><ele>514.5</ele><time>2015-07-07T09:41:48Z</time></trkpt><trkpt lat="40.200216" lon="-5.794223"><ele>512.7</ele><time>2015-07-07T09:42:15Z</time></trkpt><trkpt lat="40.200139" lon="-5.794621"><ele>511.7</ele><time>2015-07-07T09:42:42Z</time></trkpt><trkpt lat="40.200139" lon="-5.794970"><ele>511.1</ele><time>2015-07-07T09:43:09Z</time></trkpt><trkpt lat="40.199948" lon="-5.795119"><ele>511.0</ele><time>2015-07-07T09:43:36Z</time></trkpt><trkpt lat="40.199719" lon="-5.795219"><ele>511.0</ele><time>2015-07-07T09:44:03Z</time></trkpt><trkpt lat="40.199452" lon="-5.795318"><ele>510.9</ele><time>2015-07-07T09:44:30Z</time></trkpt><trkpt lat="40.199299" lon="-5.795417"><ele>510.2</ele><time>2015-07-07T09:44:57Z</time></trkpt><trkpt lat="40.199146" lon="-5.795666"><ele>510.0</ele><time>2015-07-07T09:45:24Z</time></trkpt><trkpt lat="40.198841" lon="-5.795716"><ele>510.1</ele><time>2015-07-07T09:45:51Z</time></trkpt><trkpt lat="40.198802" lon="-5.796065"><ele>510.0</ele><time>2015-07-07T09:46:18Z</time></trkpt><trkpt lat="40.198649" lon="-5.796313"><ele>510.6</ele><time>2015-07-07T09:46:45Z</time></trkpt><trkpt lat="40.198572" lon="-5.796662"><ele>510.0</ele><time>2015-07-07T09:47:12Z</time></trkpt><trkpt lat="40.198534" lon="-5.797011"><ele>510.0</ele><time>2015-07-07T09:47:39Z</time></trkpt><trkpt lat="40.198419" lon="-5.797260"><ele>509.9</ele><time>2015-07-07T09:48:06Z</time></trkpt><trkpt lat="40.198304" lon="-5.797459"><ele>509.2</ele><time>2015-07-07T09:48:33Z</time></trkpt><trkpt lat="40.198189" lon="-5.797658"><ele>509.2</ele><time>2015-07-07T09:49:00Z</time></trkpt><trkpt lat="40.198113" lon="-5.797907"><ele>509.6</ele><time>2015-07-07T09:49:27Z</time></trkpt><trkpt lat="40.197998" lon="-5.798206"><ele>509.7</ele><time>2015-07-07T09:49:54Z</time></trkpt><trkpt lat="40.197997" lon="-5.798505"><ele>508.6</ele><time>2015-07-07T09:50:21Z</time></trkpt><trkpt lat="40.197921" lon="-5.798903"><ele>506.5</ele><time>2015-07-07T09:50:48Z</time></trkpt><trkpt lat="40.198149" lon="-5.799252"><ele>506.7</ele><time>2015-07-07T09:51:15Z</time></trkpt><trkpt lat="40.198072" lon="-5.799750"><ele>505.0</ele><time>2015-07-07T09:51:42Z</time></trkpt><trkpt lat="40.198185" lon="-5.800248"><ele>504.9</ele><time>2015-07-07T09:52:09Z</time></trkpt><trkpt lat="40.198299" lon="-5.800497"><ele>505.9</ele><time>2015-07-07T09:52:36Z</time></trkpt><trkpt lat="40.198375" lon="-5.800796"><ele>506.9</ele><time>2015-07-07T09:53:03Z</time></trkpt><trkpt lat="40.198413" lon="-5.801045"><ele>506.5</ele><time>2015-07-07T09:53:30Z</time></trkpt><trkpt lat="40.198527" lon="-5.801195"><ele>506.4</ele><time>2015-07-07T09:53:57Z</time></trkpt><trkpt lat="40.198679" lon="-5.801793"><ele>502.7</ele><time>2015-07-07T09:54:24Z</time></trkpt><trkpt lat="40.198831" lon="-5.802092"><ele>502.3</ele><time>2015-07-07T09:54:51Z</time></trkpt><trkpt lat="40.198907" lon="-5.802391"><ele>502.9</ele><time>2015-07-07T09:55:18Z</time></trkpt><trkpt lat="40.198868" lon="-5.802739"><ele>503.4</ele><time>2015-07-07T09:55:45Z</time></trkpt><trkpt lat="40.198791" lon="-5.803088"><ele>503.7</ele><time>2015-07-07T09:56:12Z</time></trkpt><trkpt lat="40.198715" lon="-5.803387"><ele>505.6</ele><time>2015-07-07T09:56:39Z</time></trkpt><trkpt lat="40.198562" lon="-5.803636"><ele>503.4</ele><time>2015-07-07T09:57:06Z</time></trkpt><trkpt lat="40.198447" lon="-5.803885"><ele>501.9</ele><time>2015-07-07T09:57:33Z</time></trkpt><trkpt lat="40.198179" lon="-5.804183"><ele>499.0</ele><time>2015-07-07T09:58:00Z</time></trkpt><trkpt lat="40.198103" lon="-5.804432"><ele>500.9</ele><time>2015-07-07T09:58:27Z</time></trkpt><trkpt lat="40.197911" lon="-5.804681"><ele>503.0</ele><time>2015-07-07T09:58:54Z</time></trkpt><trkpt lat="40.197759" lon="-5.804880"><ele>503.5</ele><time>2015-07-07T09:59:21Z</time></trkpt><trkpt lat="40.197567" lon="-5.805129"><ele>502.5</ele><time>2015-07-07T09:59:48Z</time></trkpt><trkpt lat="40.197338" lon="-5.805428"><ele>502.3</ele><time>2015-07-07T10:00:15Z</time></trkpt><trkpt lat="40.197185" lon="-5.805627"><ele>502.3</ele><time>2015-07-07T10:00:42Z</time></trkpt><trkpt lat="40.197070" lon="-5.805876"><ele>503.0</ele><time>2015-07-07T10:01:09Z</time></trkpt><trkpt lat="40.196879" lon="-5.806075"><ele>502.9</ele><time>2015-07-07T10:01:36Z</time></trkpt><trkpt lat="40.196803" lon="-5.806224"><ele>505.0</ele><time>2015-07-07T10:02:03Z</time></trkpt><trkpt lat="40.196688" lon="-5.806373"><ele>506.1</ele><time>2015-07-07T10:02:30Z</time></trkpt><trkpt lat="40.196497" lon="-5.806572"><ele>502.0</ele><time>2015-07-07T10:02:57Z</time></trkpt><trkpt lat="40.196649" lon="-5.806871"><ele>513.5</ele><time>2015-07-07T10:03:24Z</time></trkpt><trkpt lat="40.196640" lon="-5.806980"><ele>516.2</ele><time>2015-07-07T10:03:51Z</time></trkpt><trkpt lat="40.196570" lon="-5.807150"><ele>517.2</ele><time>2015-07-07T10:04:18Z</time></trkpt><trkpt lat="40.196540" lon="-5.807320"><ele>519.9</ele><time>2015-07-07T10:04:45Z</time></trkpt><trkpt lat="40.196550" lon="-5.807460"><ele>522.3</ele><time>2015-07-07T10:05:12Z</time></trkpt><trkpt lat="40.196570" lon="-5.807660"><ele>526.5</ele><time>2015-07-07T10:05:39Z</time></trkpt><trkpt lat="40.196540" lon="-5.807820"><ele>529.4</ele><time>2015-07-07T10:06:06Z</time></trkpt><trkpt lat="40.196450" lon="-5.808030"><ele>533.4</ele><time>2015-07-07T10:06:33Z</time></trkpt><trkpt lat="40.196330" lon="-5.808260"><ele>536.8</ele><time>2015-07-07T10:07:00Z</time></trkpt><trkpt lat="40.196260" lon="-5.808410"><ele>539.0</ele><time>2015-07-07T10:07:27Z</time></trkpt><trkpt lat="40.196180" lon="-5.808590"><ele>541.5</ele><time>2015-07-07T10:07:54Z</time></trkpt><trkpt lat="40.196110" lon="-5.808800"><ele>543.3</ele><time>2015-07-07T10:08:21Z</time></trkpt><trkpt lat="40.196110" lon="-5.809020"><ele>544.9</ele><time>2015-07-07T10:08:48Z</time></trkpt><trkpt lat="40.196110" lon="-5.809100"><ele>545.5</ele><time>2015-07-07T10:09:15Z</time></trkpt><trkpt lat="40.196140" lon="-5.809400"><ele>547.9</ele><time>2015-07-07T10:09:42Z</time></trkpt><trkpt lat="40.196170" lon="-5.809630"><ele>551.4</ele><time>2015-07-07T10:10:09Z</time></trkpt><trkpt lat="40.196210" lon="-5.809900"><ele>556.6</ele><time>2015-07-07T10:10:36Z</time></trkpt><trkpt lat="40.196280" lon="-5.810220"><ele>562.3</ele><time>2015-07-07T10:11:03Z</time></trkpt><trkpt lat="40.196280" lon="-5.810480"><ele>565.7</ele><time>2015-07-07T10:11:30Z</time></trkpt><trkpt lat="40.196240" lon="-5.810790"><ele>569.9</ele><time>2015-07-07T10:11:57Z</time></trkpt><trkpt lat="40.196220" lon="-5.811040"><ele>573.6</ele><time>2015-07-07T10:12:24Z</time></trkpt><trkpt lat="40.196240" lon="-5.811180"><ele>576.5</ele><time>2015-07-07T10:12:51Z</time></trkpt><trkpt lat="40.196270" lon="-5.811320"><ele>579.8</ele><time>2015-07-07T10:13:18Z</time></trkpt><trkpt lat="40.196320" lon="-5.811490"><ele>585.5</ele><time>2015-07-07T10:13:45Z</time></trkpt><trkpt lat="40.196340" lon="-5.811600"><ele>589.5</ele><time>2015-07-07T10:14:12Z</time></trkpt><trkpt lat="40.196320" lon="-5.811750"><ele>593.0</ele><time>2015-07-07T10:14:39Z</time></trkpt><trkpt lat="40.196280" lon="-5.811900"><ele>595.4</ele><time>2015-07-07T10:15:06Z</time></trkpt><trkpt lat="40.196270" lon="-5.812020"><ele>596.9</ele><time>2015-07-07T10:15:33Z</time></trkpt><trkpt lat="40.196260" lon="-5.812130"><ele>597.8</ele><time>2015-07-07T10:16:00Z</time></trkpt><trkpt lat="40.196250" lon="-5.812310"><ele>599.6</ele><time>2015-07-07T10:16:27Z</time></trkpt><trkpt lat="40.196210" lon="-5.812470"><ele>600.5</ele><time>2015-07-07T10:16:54Z</time></trkpt><trkpt lat="40.196200" lon="-5.812630"><ele>602.9</ele><time>2015-07-07T10:17:21Z</time></trkpt><trkpt lat="40.196230" lon="-5.812800"><ele>606.5</ele><time>2015-07-07T10:17:48Z</time></trkpt><trkpt lat="40.196270" lon="-5.813030"><ele>611.0</ele><time>2015-07-07T10:18:15Z</time></trkpt><trkpt lat="40.196280" lon="-5.813200"><ele>614.0</ele><time>2015-07-07T10:18:42Z</time></trkpt><trkpt lat="40.196290" lon="-5.813400"><ele>617.8</ele><time>2015-07-07T10:19:09Z</time></trkpt><trkpt lat="40.196350" lon="-5.813570"><ele>622.9</ele><time>2015-07-07T10:19:36Z</time></trkpt><trkpt lat="40.196380" lon="-5.813720"><ele>625.9</ele><time>2015-07-07T10:20:03Z</time></trkpt><trkpt lat="40.196350" lon="-5.813770"><ele>625.3</ele><time>2015-07-07T10:20:30Z</time></trkpt><trkpt lat="40.196310" lon="-5.813920"><ele>625.4</ele><time>2015-07-07T10:20:57Z</time></trkpt><trkpt lat="40.196250" lon="-5.814260"><ele>628.7</ele><time>2015-07-07T10:21:24Z</time></trkpt><trkpt lat="40.196170" lon="-5.814520"><ele>630.8</ele><time>2015-07-07T10:21:51Z</time></trkpt><trkpt lat="40.196090" lon="-5.814790"><ele>632.5</ele><time>2015-07-07T10:22:18Z</time></trkpt><trkpt lat="40.196000" lon="-5.815060"><ele>635.0</ele><time>2015-07-07T10:22:45Z</time></trkpt><trkpt lat="40.195950" lon="-5.815180"><ele>636.4</ele><time>2015-07-07T10:23:12Z</time></trkpt><trkpt lat="40.195860" lon="-5.815410"><ele>639.7</ele><time>2015-07-07T10:23:39Z</time></trkpt><trkpt lat="40.195730" lon="-5.815700"><ele>644.6</ele><time>2015-07-07T10:24:06Z</time></trkpt><trkpt lat="40.195750" lon="-5.815790"><ele>645.9</ele><time>2015-07-07T10:24:33Z</time></trkpt><trkpt lat="40.195790" lon="-5.816080"><ele>646.6</ele><time>2015-07-07T10:25:00Z</time></trkpt><trkpt lat="40.195880" lon="-5.816260"><ele>644.6</ele><time>2015-07-07T10:25:27Z</time></trkpt><trkpt lat="40.196050" lon="-5.816540"><ele>639.9</ele><time>2015-07-07T10:25:54Z</time></trkpt><trkpt lat="40.196310" lon="-5.816760"><ele>637.7</ele><time>2015-07-07T10:26:21Z</time></trkpt><trkpt lat="40.196420" lon="-5.816850"><ele>636.2</ele><time>2015-07-07T10:26:48Z</time></trkpt><trkpt lat="40.196720" lon="-5.817050"><ele>632.4</ele><time>2015-07-07T10:27:15Z</time></trkpt><trkpt lat="40.196970" lon="-5.817200"><ele>628.8</ele><time>2015-07-07T10:27:42Z</time></trkpt><trkpt lat="40.197270" lon="-5.817360"><ele>629.2</ele><time>2015-07-07T10:28:09Z</time></trkpt><trkpt lat="40.197550" lon="-5.817570"><ele>629.9</ele><time>2015-07-07T10:28:36Z</time></trkpt><trkpt lat="40.197820" lon="-5.817740"><ele>631.0</ele><time>2015-07-07T10:29:03Z</time></trkpt><trkpt lat="40.198140" lon="-5.817810"><ele>635.3</ele><time>2015-07-07T10:29:30Z</time></trkpt><trkpt lat="40.198390" lon="-5.817950"><ele>639.9</ele><time>2015-07-07T10:29:57Z</time></trkpt><trkpt lat="40.198400" lon="-5.817970"><ele>639.6</ele><time>2015-07-07T10:30:24Z</time></trkpt><trkpt lat="40.198580" lon="-5.818110"><ele>641.3</ele><time>2015-07-07T10:30:51Z</time></trkpt><trkpt lat="40.198830" lon="-5.818310"><ele>641.2</ele><time>2015-07-07T10:31:18Z</time></trkpt><trkpt lat="40.199050" lon="-5.818530"><ele>641.6</ele><time>2015-07-07T10:31:45Z</time></trkpt><trkpt lat="40.199070" lon="-5.818540"><ele>641.9</ele><time>2015-07-07T10:32:12Z</time></trkpt><trkpt lat="40.199340" lon="-5.818730"><ele>645.5</ele><time>2015-07-07T10:32:39Z</time></trkpt><trkpt lat="40.199570" lon="-5.818860"><ele>649.6</ele><time>2015-07-07T10:33:06Z</time></trkpt><trkpt lat="40.199680" lon="-5.819080"><ele>651.0</ele><time>2015-07-07T10:33:33Z</time></trkpt><trkpt lat="40.199660" lon="-5.819140"><ele>650.1</ele><time>2015-07-07T10:34:00Z</time></trkpt><trkpt lat="40.199650" lon="-5.819210"><ele>650.2</ele><time>2015-07-07T10:34:27Z</time></trkpt><trkpt lat="40.199620" lon="-5.819380"><ele>651.5</ele><time>2015-07-07T10:34:54Z</time></trkpt><trkpt lat="40.199600" lon="-5.819430"><ele>651.4</ele><time>2015-07-07T10:35:21Z</time></trkpt><trkpt lat="40.199600" lon="-5.819460"><ele>651.8</ele><time>2015-07-07T10:35:48Z</time></trkpt><trkpt lat="40.199540" lon="-5.819780"><ele>653.1</ele><time>2015-07-07T10:36:15Z</time></trkpt><trkpt lat="40.199610" lon="-5.820120"><ele>653.9</ele><time>2015-07-07T10:36:42Z</time></trkpt><trkpt lat="40.199740" lon="-5.820450"><ele>654.2</ele><time>2015-07-07T10:37:09Z</time></trkpt><trkpt lat="40.199870" lon="-5.820800"><ele>654.4</ele><time>2015-07-07T10:37:36Z</time></trkpt><trkpt lat="40.199970" lon="-5.821200"><ele>655.6</ele><time>2015-07-07T10:38:03Z</time></trkpt><trkpt lat="40.199970" lon="-5.821620"><ele>653.9</ele><time>2015-07-07T10:38:30Z</time></trkpt><trkpt lat="40.200030" lon="-5.822030"><ele>655.8</ele><time>2015-07-07T10:38:57Z</time></trkpt><trkpt lat="40.200110" lon="-5.822320"><ele>656.6</ele><time>2015-07-07T10:39:24Z</time></trkpt><trkpt lat="40.200290" lon="-5.822650"><ele>656.9</ele><time>2015-07-07T10:39:51Z</time></trkpt><trkpt lat="40.200520" lon="-5.822700"><ele>658.5</ele><time>2015-07-07T10:40:18Z</time></trkpt><trkpt lat="40.200710" lon="-5.822550"><ele>662.4</ele><time>2015-07-07T10:40:45Z</time></trkpt><trkpt lat="40.200740" lon="-5.822520"><ele>662.9</ele><time>2015-07-07T10:41:12Z</time></trkpt><trkpt lat="40.200790" lon="-5.822370"><ele>665.0</ele><time>2015-07-07T10:41:39Z</time></trkpt><trkpt lat="40.200890" lon="-5.822130"><ele>667.0</ele><time>2015-07-07T10:42:06Z</time></trkpt><trkpt lat="40.200990" lon="-5.821810"><ele>669.2</ele><time>2015-07-07T10:42:33Z</time></trkpt><trkpt lat="40.201150" lon="-5.821400"><ele>674.5</ele><time>2015-07-07T10:43:00Z</time></trkpt><trkpt lat="40.201420" lon="-5.821110"><ele>680.7</ele><time>2015-07-07T10:43:27Z</time></trkpt><trkpt lat="40.201670" lon="-5.820960"><ele>680.2</ele><time>2015-07-07T10:43:54Z</time></trkpt><trkpt lat="40.201770" lon="-5.820930"><ele>680.3</ele><time>2015-07-07T10:44:21Z</time></trkpt><trkpt lat="40.201830" lon="-5.820980"><ele>679.6</ele><time>2015-07-07T10:44:48Z</time></trkpt><trkpt lat="40.201870" lon="-5.821010"><ele>679.4</ele><time>2015-07-07T10:45:15Z</time></trkpt><trkpt lat="40.201860" lon="-5.821180"><ele>678.6</ele><time>2015-07-07T10:45:42Z</time></trkpt><trkpt lat="40.201850" lon="-5.821510"><ele>676.2</ele><time>2015-07-07T10:46:09Z</time></trkpt><trkpt lat="40.201890" lon="-5.821820"><ele>674.6</ele><time>2015-07-07T10:46:36Z</time></trkpt><trkpt lat="40.201950" lon="-5.822080"><ele>676.8</ele><time>2015-07-07T10:47:03Z</time></trkpt><trkpt lat="40.202040" lon="-5.822340"><ele>682.5</ele><time>2015-07-07T10:47:30Z</time></trkpt><trkpt lat="40.202070" lon="-5.822440"><ele>684.5</ele><time>2015-07-07T10:47:57Z</time></trkpt><trkpt lat="40.202080" lon="-5.822500"><ele>685.4</ele><time>2015-07-07T10:48:24Z</time></trkpt><trkpt lat="40.202170" lon="-5.822860"><ele>689.9</ele><time>2015-07-07T10:48:51Z</time></trkpt><trkpt lat="40.202260" lon="-5.823160"><ele>686.9</ele><time>2015-07-07T10:49:18Z</time></trkpt><trkpt lat="40.202470" lon="-5.823360"><ele>685.0</ele><time>2015-07-07T10:49:45Z</time></trkpt><trkpt lat="40.202710" lon="-5.823650"><ele>688.7</ele><time>2015-07-07T10:50:12Z</time></trkpt><trkpt lat="40.202720" lon="-5.823980"><ele>689.5</ele><time>2015-07-07T10:50:39Z</time></trkpt><trkpt lat="40.202760" lon="-5.824170"><ele>690.3</ele><time>2015-07-07T10:51:06Z</time></trkpt><trkpt lat="40.202830" lon="-5.824290"><ele>691.5</ele><time>2015-07-07T10:51:33Z</time></trkpt><trkpt lat="40.202860" lon="-5.824320"><ele>692.1</ele><time>2015-07-07T10:52:00Z</time></trkpt><trkpt lat="40.202970" lon="-5.824460"><ele>694.0</ele><time>2015-07-07T10:52:27Z</time></trkpt><trkpt lat="40.203220" lon="-5.824670"><ele>698.9</ele><time>2015-07-07T10:52:54Z</time></trkpt><trkpt lat="40.203440" lon="-5.824950"><ele>697.9</ele><time>2015-07-07T10:53:21Z</time></trkpt><trkpt lat="40.203660" lon="-5.825210"><ele>699.2</ele><time>2015-07-07T10:53:48Z</time></trkpt><trkpt lat="40.203820" lon="-5.825350"><ele>703.2</ele><time>2015-07-07T10:54:15Z</time></trkpt><trkpt lat="40.203970" lon="-5.825650"><ele>706.7</ele><time>2015-07-07T10:54:42Z</time></trkpt><trkpt lat="40.204050" lon="-5.825780"><ele>709.3</ele><time>2015-07-07T10:55:09Z</time></trkpt><trkpt lat="40.204130" lon="-5.825910"><ele>711.7</ele><time>2015-07-07T10:55:36Z</time></trkpt><trkpt lat="40.204180" lon="-5.826110"><ele>712.7</ele><time>2015-07-07T10:56:03Z</time></trkpt><trkpt lat="40.204210" lon="-5.826270"><ele>712.8</ele><time>2015-07-07T10:56:30Z</time></trkpt><trkpt lat="40.204270" lon="-5.826400"><ele>715.3</ele><time>2015-07-07T10:56:57Z</time></trkpt><trkpt lat="40.204340" lon="-5.826720"><ele>717.7</ele><time>2015-07-07T10:57:24Z</time></trkpt><trkpt lat="40.204300" lon="-5.827220"><ele>718.8</ele><time>2015-07-07T10:57:51Z</time></trkpt><trkpt lat="40.204240" lon="-5.827650"><ele>714.0</ele><time>2015-07-07T10:58:18Z</time></trkpt><trkpt lat="40.204300" lon="-5.828120"><ele>712.2</ele><time>2015-07-07T10:58:45Z</time></trkpt><trkpt lat="40.204340" lon="-5.828530"><ele>712.8</ele><time>2015-07-07T10:59:12Z</time></trkpt><trkpt lat="40.204330" lon="-5.828980"><ele>714.8</ele><time>2015-07-07T10:59:39Z</time></trkpt><trkpt lat="40.204320" lon="-5.829110"><ele>715.8</ele><time>2015-07-07T11:00:06Z</time></trkpt><trkpt lat="40.204310" lon="-5.829200"><ele>716.4</ele><time>2015-07-07T11:00:33Z</time></trkpt><trkpt lat="40.204200" lon="-5.829430"><ele>717.2</ele><time>2015-07-07T11:01:00Z</time></trkpt><trkpt lat="40.204190" lon="-5.829440"><ele>717.2</ele><time>2015-07-07T11:01:27Z</time></trkpt><trkpt lat="40.204220" lon="-5.829470"><ele>717.6</ele><time>2015-07-07T11:01:54Z</time></trkpt><trkpt lat="40.204240" lon="-5.829640"><ele>717.8</ele><time>2015-07-07T11:02:21Z</time></trkpt><trkpt lat="40.204250" lon="-5.829720"><ele>717.9</ele><time>2015-07-07T11:02:48Z</time></trkpt><trkpt lat="40.204260" lon="-5.829780"><ele>718.8</ele><time>2015-07-07T11:03:15Z</time></trkpt><trkpt lat="40.204250" lon="-5.830050"><ele>722.3</ele><time>2015-07-07T11:03:42Z</time></trkpt><trkpt lat="40.204300" lon="-5.830290"><ele>725.2</ele><time>2015-07-07T11:04:09Z</time></trkpt><trkpt lat="40.204380" lon="-5.830480"><ele>726.8</ele><time>2015-07-07T11:04:36Z</time></trkpt><trkpt lat="40.204510" lon="-5.830610"><ele>727.5</ele><time>2015-07-07T11:05:03Z</time></trkpt><trkpt lat="40.204610" lon="-5.830650"><ele>728.4</ele><time>2015-07-07T11:05:30Z</time></trkpt><trkpt lat="40.204640" lon="-5.830680"><ele>728.8</ele><time>2015-07-07T11:05:57Z</time></trkpt><trkpt lat="40.204750" lon="-5.830750"><ele>730.1</ele><time>2015-07-07T11:06:24Z</time></trkpt><trkpt lat="40.204780" lon="-5.830640"><ele>730.3</ele><time>2015-07-07T11:06:51Z</time></trkpt><trkpt lat="40.204760" lon="-5.830280"><ele>733.1</ele><time>2015-07-07T11:07:18Z</time></trkpt><trkpt lat="40.204790" lon="-5.830080"><ele>735.2</ele><time>2015-07-07T11:07:45Z</time></trkpt><trkpt lat="40.204840" lon="-5.829960"><ele>737.4</ele><time>2015-07-07T11:08:12Z</time></trkpt><trkpt lat="40.204890" lon="-5.829930"><ele>739.1</ele><time>2015-07-07T11:08:39Z</time></trkpt><trkpt lat="40.204910" lon="-5.829980"><ele>740.3</ele><time>2015-07-07T11:09:06Z</time></trkpt><trkpt lat="40.204970" lon="-5.830270"><ele>739.2</ele><time>2015-07-07T11:09:33Z</time></trkpt><trkpt lat="40.205070" lon="-5.830430"><ele>742.1</ele><time>2015-07-07T11:10:00Z</time></trkpt><trkpt lat="40.205160" lon="-5.830620"><ele>745.1</ele><time>2015-07-07T11:10:27Z</time></trkpt><trkpt lat="40.205260" lon="-5.830820"><ele>748.3</ele><time>2015-07-07T11:10:54Z</time></trkpt><trkpt lat="40.205380" lon="-5.831020"><ele>753.0</ele><time>2015-07-07T11:11:21Z</time></trkpt><trkpt lat="40.205480" lon="-5.831170"><ele>755.2</ele><time>2015-07-07T11:11:48Z</time></trkpt><trkpt lat="40.205510" lon="-5.831180"><ele>756.2</ele><time>2015-07-07T11:12:15Z</time></trkpt><trkpt lat="40.205630" lon="-5.831360"><ele>758.0</ele><time>2015-07-07T11:12:42Z</time></trkpt><trkpt lat="40.205700" lon="-5.831490"><ele>760.2</ele><time>2015-07-07T11:13:09Z</time></trkpt><trkpt lat="40.205750" lon="-5.831650"><ele>761.9</ele><time>2015-07-07T11:13:36Z</time></trkpt><trkpt lat="40.205790" lon="-5.831800"><ele>763.7</ele><time>2015-07-07T11:14:03Z</time></trkpt><trkpt lat="40.205820" lon="-5.832010"><ele>765.1</ele><time>2015-07-07T11:14:30Z</time></trkpt><trkpt lat="40.205930" lon="-5.832170"><ele>770.8</ele><time>2015-07-07T11:14:57Z</time></trkpt><trkpt lat="40.206050" lon="-5.832260"><ele>777.2</ele><time>2015-07-07T11:15:24Z</time></trkpt><trkpt lat="40.206080" lon="-5.832550"><ele>776.3</ele><time>2015-07-07T11:15:51Z</time></trkpt><trkpt lat="40.206110" lon="-5.832700"><ele>774.6</ele><time>2015-07-07T11:16:18Z</time></trkpt><trkpt lat="40.206210" lon="-5.832770"><ele>778.8</ele><time>2015-07-07T11:16:45Z</time></trkpt><trkpt lat="40.206270" lon="-5.832820"><ele>781.8</ele><time>2015-07-07T11:17:12Z</time></trkpt><trkpt lat="40.206340" lon="-5.832870"><ele>785.5</ele><time>2015-07-07T11:17:39Z</time></trkpt><trkpt lat="40.206380" lon="-5.832930"><ele>787.4</ele><time>2015-07-07T11:18:06Z</time></trkpt><trkpt lat="40.206500" lon="-5.833210"><ele>793.1</ele><time>2015-07-07T11:18:33Z</time></trkpt><trkpt lat="40.206570" lon="-5.833440"><ele>797.0</ele><time>2015-07-07T11:19:00Z</time></trkpt><trkpt lat="40.206640" lon="-5.833620"><ele>801.2</ele><time>2015-07-07T11:19:27Z</time></trkpt><trkpt lat="40.206750" lon="-5.833770"><ele>805.1</ele><time>2015-07-07T11:19:54Z</time></trkpt><trkpt lat="40.206860" lon="-5.833910"><ele>808.9</ele><time>2015-07-07T11:20:21Z</time></trkpt><trkpt lat="40.206990" lon="-5.834030"><ele>811.4</ele><time>2015-07-07T11:20:48Z</time></trkpt><trkpt lat="40.207100" lon="-5.834150"><ele>812.0</ele><time>2015-07-07T11:21:15Z</time></trkpt><trkpt lat="40.207300" lon="-5.834210"><ele>818.3</ele><time>2015-07-07T11:21:42Z</time></trkpt><trkpt lat="40.207460" lon="-5.834360"><ele>821.4</ele><time>2015-07-07T11:22:09Z</time></trkpt><trkpt lat="40.207570" lon="-5.834460"><ele>823.6</ele><time>2015-07-07T11:22:36Z</time></trkpt><trkpt lat="40.207710" lon="-5.834540"><ele>827.4</ele><time>2015-07-07T11:23:03Z</time></trkpt><trkpt lat="40.207860" lon="-5.834730"><ele>829.1</ele><time>2015-07-07T11:23:30Z</time></trkpt><trkpt lat="40.207980" lon="-5.834850"><ele>833.5</ele><time>2015-07-07T11:23:57Z</time></trkpt><trkpt lat="40.208080" lon="-5.835050"><ele>835.8</ele><time>2015-07-07T11:24:24Z</time></trkpt><trkpt lat="40.208110" lon="-5.835300"><ele>836.0</ele><time>2015-07-07T11:24:51Z</time></trkpt><trkpt lat="40.208210" lon="-5.835570"><ele>839.7</ele><time>2015-07-07T11:25:18Z</time></trkpt><trkpt lat="40.208270" lon="-5.835660"><ele>842.9</ele><time>2015-07-07T11:25:45Z</time></trkpt><trkpt lat="40.208370" lon="-5.835820"><ele>847.6</ele><time>2015-07-07T11:26:12Z</time></trkpt><trkpt lat="40.208420" lon="-5.835920"><ele>850.1</ele><time>2015-07-07T11:26:39Z</time></trkpt><trkpt lat="40.208430" lon="-5.835970"><ele>851.0</ele><time>2015-07-07T11:27:06Z</time></trkpt><trkpt lat="40.208360" lon="-5.836160"><ele>852.8</ele><time>2015-07-07T11:27:33Z</time></trkpt><trkpt lat="40.208260" lon="-5.836240"><ele>851.8</ele><time>2015-07-07T11:28:00Z</time></trkpt><trkpt lat="40.208210" lon="-5.836280"><ele>851.2</ele><time>2015-07-07T11:28:27Z</time></trkpt><trkpt lat="40.208070" lon="-5.836330"><ele>848.7</ele><time>2015-07-07T11:28:54Z</time></trkpt><trkpt lat="40.208000" lon="-5.836420"><ele>846.6</ele><time>2015-07-07T11:29:21Z</time></trkpt><trkpt lat="40.208010" lon="-5.836520"><ele>846.9</ele><time>2015-07-07T11:29:48Z</time></trkpt><trkpt lat="40.208160" lon="-5.836550"><ele>852.1</ele><time>2015-07-07T11:30:15Z</time></trkpt><trkpt lat="40.208330" lon="-5.836640"><ele>858.5</ele><time>2015-07-07T11:30:42Z</time></trkpt><trkpt lat="40.208480" lon="-5.836750"><ele>863.5</ele><time>2015-07-07T11:31:09Z</time></trkpt><trkpt lat="40.208630" lon="-5.836830"><ele>869.0</ele><time>2015-07-07T11:31:36Z</time></trkpt><trkpt lat="40.208770" lon="-5.836720"><ele>868.6</ele><time>2015-07-07T11:32:03Z</time></trkpt><trkpt lat="40.208820" lon="-5.836730"><ele>869.8</ele><time>2015-07-07T11:32:30Z</time></trkpt><trkpt lat="40.208850" lon="-5.836970"><ele>874.9</ele><time>2015-07-07T11:32:57Z</time></trkpt><trkpt lat="40.208880" lon="-5.837100"><ele>877.1</ele><time>2015-07-07T11:33:24Z</time></trkpt><trkpt lat="40.208880" lon="-5.837300"><ele>879.1</ele><time>2015-07-07T11:33:51Z</time></trkpt><trkpt lat="40.208860" lon="-5.837460"><ele>879.2</ele><time>2015-07-07T11:34:18Z</time></trkpt><trkpt lat="40.208930" lon="-5.837600"><ele>880.0</ele><time>2015-07-07T11:34:45Z</time></trkpt><trkpt lat="40.208970" lon="-5.837870"><ele>878.6</ele><time>2015-07-07T11:35:12Z</time></trkpt><trkpt lat="40.209120" lon="-5.838140"><ele>880.4</ele><time>2015-07-07T11:35:39Z</time></trkpt><trkpt lat="40.209290" lon="-5.838500"><ele>880.1</ele><time>2015-07-07T11:36:06Z</time></trkpt><trkpt lat="40.209500" lon="-5.838750"><ele>884.7</ele><time>2015-07-07T11:36:33Z</time></trkpt><trkpt lat="40.209700" lon="-5.838890"><ele>890.1</ele><time>2015-07-07T11:37:00Z</time></trkpt><trkpt lat="40.209720" lon="-5.838890"><ele>890.9</ele><time>2015-07-07T11:37:27Z</time></trkpt><trkpt lat="40.209880" lon="-5.839110"><ele>893.5</ele><time>2015-07-07T11:37:54Z</time></trkpt><trkpt lat="40.210040" lon="-5.839250"><ele>898.3</ele><time>2015-07-07T11:38:21Z</time></trkpt><trkpt lat="40.210170" lon="-5.839460"><ele>899.9</ele><time>2015-07-07T11:38:48Z</time></trkpt><trkpt lat="40.210270" lon="-5.839550"><ele>902.2</ele><time>2015-07-07T11:39:15Z</time></trkpt><trkpt lat="40.210320" lon="-5.839500"><ele>904.8</ele><time>2015-07-07T11:39:42Z</time></trkpt><trkpt lat="40.210340" lon="-5.839690"><ele>902.7</ele><time>2015-07-07T11:40:09Z</time></trkpt><trkpt lat="40.210340" lon="-5.839920"><ele>899.2</ele><time>2015-07-07T11:40:36Z</time></trkpt><trkpt lat="40.210360" lon="-5.839940"><ele>899.6</ele><time>2015-07-07T11:41:03Z</time></trkpt><trkpt lat="40.210360" lon="-5.840050"><ele>897.4</ele><time>2015-07-07T11:41:30Z</time></trkpt><trkpt lat="40.210390" lon="-5.840320"><ele>891.9</ele><time>2015-07-07T11:41:57Z</time></trkpt><trkpt lat="40.210410" lon="-5.840470"><ele>889.9</ele><time>2015-07-07T11:42:24Z</time></trkpt><trkpt lat="40.210510" lon="-5.840630"><ele>889.4</ele><time>2015-07-07T11:42:51Z</time></trkpt><trkpt lat="40.210580" lon="-5.840760"><ele>889.7</ele><time>2015-07-07T11:43:18Z</time></trkpt><trkpt lat="40.210620" lon="-5.840830"><ele>890.1</ele><time>2015-07-07T11:43:45Z</time></trkpt><trkpt lat="40.210770" lon="-5.841040"><ele>893.2</ele><time>2015-07-07T11:44:12Z</time></trkpt><trkpt lat="40.210890" lon="-5.841200"><ele>895.5</ele><time>2015-07-07T11:44:39Z</time></trkpt><trkpt lat="40.210960" lon="-5.841280"><ele>896.7</ele><time>2015-07-07T11:45:06Z</time></trkpt><trkpt lat="40.210970" lon="-5.841460"><ele>898.6</ele><time>2015-07-07T11:45:33Z</time></trkpt><trkpt lat="40.210960" lon="-5.841520"><ele>900.0</ele><time>2015-07-07T11:46:00Z</time></trkpt><trkpt lat="40.210910" lon="-5.841550"><ele>900.2</ele><time>2015-07-07T11:46:27Z</time></trkpt><trkpt lat="40.210800" lon="-5.841630"><ele>900.8</ele><time>2015-07-07T11:46:54Z</time></trkpt><trkpt lat="40.210740" lon="-5.841740"><ele>902.5</ele><time>2015-07-07T11:47:21Z</time></trkpt><trkpt lat="40.210810" lon="-5.841810"><ele>904.8</ele><time>2015-07-07T11:47:48Z</time></trkpt><trkpt lat="40.210810" lon="-5.841930"><ele>907.4</ele><time>2015-07-07T11:48:15Z</time></trkpt><trkpt lat="40.210780" lon="-5.842110"><ele>909.5</ele><time>2015-07-07T11:48:42Z</time></trkpt><trkpt lat="40.210820" lon="-5.842120"><ele>910.3</ele><time>2015-07-07T11:49:09Z</time></trkpt><trkpt lat="40.210860" lon="-5.842170"><ele>912.1</ele><time>2015-07-07T11:49:36Z</time></trkpt><trkpt lat="40.210830" lon="-5.842330"><ele>914.3</ele><time>2015-07-07T11:50:03Z</time></trkpt><trkpt lat="40.210860" lon="-5.842370"><ele>916.0</ele><time>2015-07-07T11:50:30Z</time></trkpt><trkpt lat="40.210960" lon="-5.842300"><ele>917.7</ele><time>2015-07-07T11:50:57Z</time></trkpt><trkpt lat="40.210970" lon="-5.842440"><ele>920.7</ele><time>2015-07-07T11:51:24Z</time></trkpt><trkpt lat="40.210980" lon="-5.842650"><ele>925.5</ele><time>2015-07-07T11:51:51Z</time></trkpt><trkpt lat="40.211060" lon="-5.842750"><ele>930.5</ele><time>2015-07-07T11:52:18Z</time></trkpt><trkpt lat="40.211060" lon="-5.842910"><ele>932.6</ele><time>2015-07-07T11:52:45Z</time></trkpt><trkpt lat="40.211080" lon="-5.843120"><ele>935.5</ele><time>2015-07-07T11:53:12Z</time></trkpt><trkpt lat="40.211110" lon="-5.843280"><ele>938.4</ele><time>2015-07-07T11:53:39Z</time></trkpt><trkpt lat="40.211200" lon="-5.843480"><ele>943.2</ele><time>2015-07-07T11:54:06Z</time></trkpt><trkpt lat="40.211230" lon="-5.843650"><ele>944.5</ele><time>2015-07-07T11:54:33Z</time></trkpt><trkpt lat="40.211260" lon="-5.843820"><ele>944.7</ele><time>2015-07-07T11:55:00Z</time></trkpt><trkpt lat="40.211280" lon="-5.844040"><ele>944.2</ele><time>2015-07-07T11:55:27Z</time></trkpt><trkpt lat="40.211360" lon="-5.844150"><ele>946.2</ele><time>2015-07-07T11:55:54Z</time></trkpt><trkpt lat="40.211420" lon="-5.844340"><ele>948.4</ele><time>2015-07-07T11:56:21Z</time></trkpt><trkpt lat="40.211450" lon="-5.844470"><ele>949.9</ele><time>2015-07-07T11:56:48Z</time></trkpt><trkpt lat="40.211410" lon="-5.844630"><ele>948.6</ele><time>2015-07-07T11:57:15Z</time></trkpt><trkpt lat="40.211440" lon="-5.844770"><ele>950.1</ele><time>2015-07-07T11:57:42Z</time></trkpt><trkpt lat="40.211480" lon="-5.844870"><ele>951.6</ele><time>2015-07-07T11:58:09Z</time></trkpt><trkpt lat="40.211510" lon="-5.845060"><ele>952.1</ele><time>2015-07-07T11:58:36Z</time></trkpt><trkpt lat="40.211580" lon="-5.845200"><ele>954.2</ele><time>2015-07-07T11:59:03Z</time></trkpt><trkpt lat="40.211590" lon="-5.845220"><ele>954.4</ele><time>2015-07-07T11:59:30Z</time></trkpt><trkpt lat="40.211680" lon="-5.845380"><ele>956.8</ele><time>2015-07-07T11:59:57Z</time></trkpt><trkpt lat="40.211690" lon="-5.845420"><ele>956.9</ele><time>2015-07-07T12:00:24Z</time></trkpt><trkpt lat="40.211830" lon="-5.845640"><ele>960.2</ele><time>2015-07-07T12:00:51Z</time></trkpt><trkpt lat="40.211930" lon="-5.845740"><ele>962.0</ele><time>2015-07-07T12:01:18Z</time></trkpt><trkpt lat="40.212090" lon="-5.845820"><ele>965.0</ele><time>2015-07-07T12:01:45Z</time></trkpt><trkpt lat="40.212210" lon="-5.845920"><ele>966.2</ele><time>2015-07-07T12:02:12Z</time></trkpt><trkpt lat="40.212230" lon="-5.845990"><ele>965.4</ele><time>2015-07-07T12:02:39Z</time></trkpt><trkpt lat="40.212330" lon="-5.846100"><ele>966.3</ele><time>2015-07-07T12:03:06Z</time></trkpt><trkpt lat="40.212410" lon="-5.846200"><ele>968.5</ele><time>2015-07-07T12:03:33Z</time></trkpt><trkpt lat="40.212460" lon="-5.846230"><ele>969.7</ele><time>2015-07-07T12:04:00Z</time></trkpt><trkpt lat="40.212510" lon="-5.846360"><ele>970.5</ele><time>2015-07-07T12:04:27Z</time></trkpt><trkpt lat="40.212550" lon="-5.846500"><ele>973.1</ele><time>2015-07-07T12:04:54Z</time></trkpt><trkpt lat="40.212630" lon="-5.846590"><ele>975.7</ele><time>2015-07-07T12:05:21Z</time></trkpt><trkpt lat="40.212650" lon="-5.846690"><ele>976.4</ele><time>2015-07-07T12:05:48Z</time></trkpt><trkpt lat="40.212690" lon="-5.846800"><ele>977.8</ele><time>2015-07-07T12:06:15Z</time></trkpt><trkpt lat="40.212720" lon="-5.846900"><ele>979.0</ele><time>2015-07-07T12:06:42Z</time></trkpt><trkpt lat="40.212740" lon="-5.847030"><ele>980.2</ele><time>2015-07-07T12:07:09Z</time></trkpt><trkpt lat="40.212780" lon="-5.847180"><ele>981.7</ele><time>2015-07-07T12:07:36Z</time></trkpt><trkpt lat="40.212800" lon="-5.847340"><ele>982.9</ele><time>2015-07-07T12:08:03Z</time></trkpt><trkpt lat="40.212820" lon="-5.847400"><ele>983.6</ele><time>2015-07-07T12:08:30Z</time></trkpt><trkpt lat="40.212790" lon="-5.847530"><ele>983.7</ele><time>2015-07-07T12:08:57Z</time></trkpt><trkpt lat="40.212890" lon="-5.847630"><ele>987.1</ele><time>2015-07-07T12:09:24Z</time></trkpt><trkpt lat="40.212950" lon="-5.847780"><ele>989.5</ele><time>2015-07-07T12:09:51Z</time></trkpt><trkpt lat="40.213030" lon="-5.847940"><ele>993.6</ele><time>2015-07-07T12:10:18Z</time></trkpt><trkpt lat="40.213050" lon="-5.848030"><ele>995.5</ele><time>2015-07-07T12:10:45Z</time></trkpt><trkpt lat="40.213090" lon="-5.848170"><ele>998.5</ele><time>2015-07-07T12:11:12Z</time></trkpt><trkpt lat="40.213190" lon="-5.848260"><ele>1002.0</ele><time>2015-07-07T12:11:39Z</time></trkpt><trkpt lat="40.213230" lon="-5.848400"><ele>1004.2</ele><time>2015-07-07T12:12:06Z</time></trkpt><trkpt lat="40.213250" lon="-5.848550"><ele>1005.4</ele><time>2015-07-07T12:12:33Z</time></trkpt><trkpt lat="40.213230" lon="-5.848780"><ele>1006.6</ele><time>2015-07-07T12:13:00Z</time></trkpt><trkpt lat="40.213230" lon="-5.848890"><ele>1007.3</ele><time>2015-07-07T12:13:27Z</time></trkpt><trkpt lat="40.213250" lon="-5.849040"><ele>1008.7</ele><time>2015-07-07T12:13:54Z</time></trkpt><trkpt lat="40.213240" lon="-5.849200"><ele>1010.0</ele><time>2015-07-07T12:14:21Z</time></trkpt><trkpt lat="40.213230" lon="-5.849340"><ele>1011.3</ele><time>2015-07-07T12:14:48Z</time></trkpt><trkpt lat="40.213200" lon="-5.849480"><ele>1012.9</ele><time>2015-07-07T12:15:15Z</time></trkpt><trkpt lat="40.213250" lon="-5.849610"><ele>1014.1</ele><time>2015-07-07T12:15:42Z</time></trkpt><trkpt lat="40.213370" lon="-5.849630"><ele>1014.1</ele><time>2015-07-07T12:16:09Z</time></trkpt><trkpt lat="40.213420" lon="-5.849760"><ele>1015.6</ele><time>2015-07-07T12:16:36Z</time></trkpt><trkpt lat="40.213500" lon="-5.849870"><ele>1017.4</ele><time>2015-07-07T12:17:03Z</time></trkpt><trkpt lat="40.213550" lon="-5.850000"><ele>1019.8</ele><time>2015-07-07T12:17:30Z</time></trkpt><trkpt lat="40.213660" lon="-5.850070"><ele>1021.9</ele><time>2015-07-07T12:17:57Z</time></trkpt><trkpt lat="40.213660" lon="-5.850090"><ele>1022.3</ele><time>2015-07-07T12:18:24Z</time></trkpt><trkpt lat="40.213670" lon="-5.850230"><ele>1024.8</ele><time>2015-07-07T12:18:51Z</time></trkpt><trkpt lat="40.213710" lon="-5.850350"><ele>1027.1</ele><time>2015-07-07T12:19:18Z</time></trkpt><trkpt lat="40.213720" lon="-5.850460"><ele>1028.7</ele><time>2015-07-07T12:19:45Z</time></trkpt><trkpt lat="40.213790" lon="-5.850530"><ele>1029.7</ele><time>2015-07-07T12:20:12Z</time></trkpt><trkpt lat="40.213790" lon="-5.850570"><ele>1030.3</ele><time>2015-07-07T12:20:39Z</time></trkpt><trkpt lat="40.213870" lon="-5.850630"><ele>1031.6</ele><time>2015-07-07T12:21:06Z</time></trkpt><trkpt lat="40.213880" lon="-5.850720"><ele>1033.6</ele><time>2015-07-07T12:21:33Z</time></trkpt><trkpt lat="40.213890" lon="-5.850740"><ele>1034.0</ele><time>2015-07-07T12:22:00Z</time></trkpt><trkpt lat="40.213910" lon="-5.850770"><ele>1034.9</ele><time>2015-07-07T12:22:27Z</time></trkpt><trkpt lat="40.213930" lon="-5.850910"><ele>1038.9</ele><time>2015-07-07T12:22:54Z</time></trkpt><trkpt lat="40.213950" lon="-5.850990"><ele>1041.7</ele><time>2015-07-07T12:23:21Z</time></trkpt><trkpt lat="40.214060" lon="-5.850950"><ele>1041.6</ele><time>2015-07-07T12:23:48Z</time></trkpt><trkpt lat="40.214120" lon="-5.850990"><ele>1043.6</ele><time>2015-07-07T12:24:15Z</time></trkpt><trkpt lat="40.214180" lon="-5.851120"><ele>1048.5</ele><time>2015-07-07T12:24:42Z</time></trkpt><trkpt lat="40.214120" lon="-5.851240"><ele>1050.8</ele><time>2015-07-07T12:25:09Z</time></trkpt><trkpt lat="40.214060" lon="-5.851270"><ele>1051.1</ele><time>2015-07-07T12:25:36Z</time></trkpt><trkpt lat="40.214140" lon="-5.851320"><ele>1053.0</ele><time>2015-07-07T12:26:03Z</time></trkpt><trkpt lat="40.214210" lon="-5.851350"><ele>1054.7</ele><time>2015-07-07T12:26:30Z</time></trkpt><trkpt lat="40.214300" lon="-5.851380"><ele>1056.7</ele><time>2015-07-07T12:26:57Z</time></trkpt><trkpt lat="40.214360" lon="-5.851510"><ele>1061.0</ele><time>2015-07-07T12:27:24Z</time></trkpt><trkpt lat="40.214230" lon="-5.851520"><ele>1059.0</ele><time>2015-07-07T12:27:51Z</time></trkpt><trkpt lat="40.214100" lon="-5.851540"><ele>1057.9</ele><time>2015-07-07T12:28:18Z</time></trkpt><trkpt lat="40.214080" lon="-5.851550"><ele>1058.0</ele><time>2015-07-07T12:28:45Z</time></trkpt><trkpt lat="40.213990" lon="-5.851630"><ele>1059.5</ele><time>2015-07-07T12:29:12Z</time></trkpt><trkpt lat="40.214030" lon="-5.851720"><ele>1062.8</ele><time>2015-07-07T12:29:39Z</time></trkpt><trkpt lat="40.214080" lon="-5.851800"><ele>1066.4</ele><time>2015-07-07T12:30:06Z</time></trkpt><trkpt lat="40.214160" lon="-5.851870"><ele>1069.8</ele><time>2015-07-07T12:30:33Z</time></trkpt><trkpt lat="40.214260" lon="-5.851970"><ele>1075.5</ele><time>2015-07-07T12:31:00Z</time></trkpt><trkpt lat="40.214330" lon="-5.852030"><ele>1078.7</ele><time>2015-07-07T12:31:27Z</time></trkpt><trkpt lat="40.214330" lon="-5.852100"><ele>1081.4</ele><time>2015-07-07T12:31:54Z</time></trkpt><trkpt lat="40.214240" lon="-5.852140"><ele>1083.3</ele><time>2015-07-07T12:32:21Z</time></trkpt><trkpt lat="40.214160" lon="-5.852200"><ele>1086.8</ele><time>2015-07-07T12:32:48Z</time></trkpt><trkpt lat="40.214180" lon="-5.852270"><ele>1089.9</ele><time>2015-07-07T12:33:15Z</time></trkpt><trkpt lat="40.214140" lon="-5.852330"><ele>1092.5</ele><time>2015-07-07T12:33:42Z</time></trkpt><trkpt lat="40.214190" lon="-5.852410"><ele>1095.8</ele><time>2015-07-07T12:34:09Z</time></trkpt><trkpt lat="40.214220" lon="-5.852470"><ele>1098.0</ele><time>2015-07-07T12:34:36Z</time></trkpt><trkpt lat="40.214200" lon="-5.852550"><ele>1101.6</ele><time>2015-07-07T12:35:03Z</time></trkpt><trkpt lat="40.214210" lon="-5.852640"><ele>1105.3</ele><time>2015-07-07T12:35:30Z</time></trkpt><trkpt lat="40.214250" lon="-5.852760"><ele>1109.5</ele><time>2015-07-07T12:35:57Z</time></trkpt><trkpt lat="40.214330" lon="-5.852890"><ele>1113.3</ele><time>2015-07-07T12:36:24Z</time></trkpt><trkpt lat="40.214420" lon="-5.853020"><ele>1117.0</ele><time>2015-07-07T12:36:51Z</time></trkpt><trkpt lat="40.214480" lon="-5.853130"><ele>1120.5</ele><time>2015-07-07T12:37:18Z</time></trkpt><trkpt lat="40.214530" lon="-5.853220"><ele>1123.5</ele><time>2015-07-07T12:37:45Z</time></trkpt><trkpt lat="40.214580" lon="-5.853290"><ele>1125.7</ele><time>2015-07-07T12:38:12Z</time></trkpt><trkpt lat="40.214620" lon="-5.853390"><ele>1129.0</ele><time>2015-07-07T12:38:39Z</time></trkpt><trkpt lat="40.214520" lon="-5.853350"><ele>1128.8</ele><time>2015-07-07T12:39:06Z</time></trkpt><trkpt lat="40.214390" lon="-5.853350"><ele>1130.8</ele><time>2015-07-07T12:39:33Z</time></trkpt><trkpt lat="40.214300" lon="-5.853390"><ele>1134.3</ele><time>2015-07-07T12:40:00Z</time></trkpt><trkpt lat="40.214310" lon="-5.853460"><ele>1136.7</ele><time>2015-07-07T12:40:27Z</time></trkpt><trkpt lat="40.214340" lon="-5.853570"><ele>1140.1</ele><time>2015-07-07T12:40:54Z</time></trkpt><trkpt lat="40.214380" lon="-5.853660"><ele>1142.3</ele><time>2015-07-07T12:41:21Z</time></trkpt><trkpt lat="40.214430" lon="-5.853750"><ele>1144.3</ele><time>2015-07-07T12:41:48Z</time></trkpt><trkpt lat="40.214480" lon="-5.853820"><ele>1146.2</ele><time>2015-07-07T12:42:15Z</time></trkpt><trkpt lat="40.214540" lon="-5.853910"><ele>1149.1</ele><time>2015-07-07T12:42:42Z</time></trkpt><trkpt lat="40.214570" lon="-5.853980"><ele>1151.6</ele><time>2015-07-07T12:43:09Z</time></trkpt><trkpt lat="40.214630" lon="-5.854060"><ele>1154.0</ele><time>2015-07-07T12:43:36Z</time></trkpt><trkpt lat="40.214740" lon="-5.854170"><ele>1157.2</ele><time>2015-07-07T12:44:03Z</time></trkpt><trkpt lat="40.214670" lon="-5.854180"><ele>1158.0</ele><time>2015-07-07T12:44:30Z</time></trkpt><trkpt lat="40.214510" lon="-5.854140"><ele>1158.3</ele><time>2015-07-07T12:44:57Z</time></trkpt><trkpt lat="40.214350" lon="-5.854130"><ele>1160.0</ele><time>2015-07-07T12:45:24Z</time></trkpt><trkpt lat="40.214220" lon="-5.854100"><ele>1161.0</ele><time>2015-07-07T12:45:51Z</time></trkpt><trkpt lat="40.214040" lon="-5.854080"><ele>1162.5</ele><time>2015-07-07T12:46:18Z</time></trkpt><trkpt lat="40.213870" lon="-5.854050"><ele>1163.6</ele><time>2015-07-07T12:46:45Z</time></trkpt><trkpt lat="40.213700" lon="-5.854070"><ele>1165.0</ele><time>2015-07-07T12:47:12Z</time></trkpt><trkpt lat="40.213700" lon="-5.854230"><ele>1168.2</ele><time>2015-07-07T12:47:39Z</time></trkpt><trkpt lat="40.213760" lon="-5.854410"><ele>1171.0</ele><time>2015-07-07T12:48:06Z</time></trkpt><trkpt lat="40.213810" lon="-5.854560"><ele>1173.4</ele><time>2015-07-07T12:48:33Z</time></trkpt><trkpt lat="40.213880" lon="-5.854740"><ele>1176.0</ele><time>2015-07-07T12:49:00Z</time></trkpt><trkpt lat="40.213920" lon="-5.854820"><ele>1177.3</ele><time>2015-07-07T12:49:27Z</time></trkpt><trkpt lat="40.214010" lon="-5.854960"><ele>1180.6</ele><time>2015-07-07T12:49:54Z</time></trkpt><trkpt lat="40.214100" lon="-5.855090"><ele>1183.6</ele><time>2015-07-07T12:50:21Z</time></trkpt><trkpt lat="40.214170" lon="-5.855240"><ele>1186.0</ele><time>2015-07-07T12:50:48Z</time></trkpt><trkpt lat="40.214250" lon="-5.855420"><ele>1189.1</ele><time>2015-07-07T12:51:15Z</time></trkpt><trkpt lat="40.214320" lon="-5.855560"><ele>1192.0</ele><time>2015-07-07T12:51:42Z</time></trkpt><trkpt lat="40.214330" lon="-5.855600"><ele>1192.2</ele><time>2015-07-07T12:52:09Z</time></trkpt><trkpt lat="40.214450" lon="-5.855780"><ele>1194.5</ele><time>2015-07-07T12:52:36Z</time></trkpt><trkpt lat="40.214530" lon="-5.855860"><ele>1195.9</ele><time>2015-07-07T12:53:03Z</time></trkpt><trkpt lat="40.214540" lon="-5.855870"><ele>1196.1</ele><time>2015-07-07T12:53:30Z</time></trkpt><trkpt lat="40.214670" lon="-5.855970"><ele>1198.3</ele><time>2015-07-07T12:53:57Z</time></trkpt><trkpt lat="40.214770" lon="-5.856030"><ele>1200.5</ele><time>2015-07-07T12:54:24Z</time></trkpt><trkpt lat="40.214840" lon="-5.855970"><ele>1203.3</ele><time>2015-07-07T12:54:51Z</time></trkpt><trkpt lat="40.214860" lon="-5.855850"><ele>1204.8</ele><time>2015-07-07T12:55:18Z</time></trkpt><trkpt lat="40.214960" lon="-5.855790"><ele>1207.5</ele><time>2015-07-07T12:55:45Z</time></trkpt><trkpt lat="40.215120" lon="-5.855870"><ele>1211.7</ele><time>2015-07-07T12:56:12Z</time></trkpt><trkpt lat="40.215370" lon="-5.856030"><ele>1220.5</ele><time>2015-07-07T12:56:39Z</time></trkpt><trkpt lat="40.215470" lon="-5.856090"><ele>1224.2</ele><time>2015-07-07T12:57:06Z</time></trkpt><trkpt lat="40.215460" lon="-5.856100"><ele>1224.1</ele><time>2015-07-07T12:57:33Z</time></trkpt><trkpt lat="40.215530" lon="-5.856220"><ele>1226.6</ele><time>2015-07-07T12:58:00Z</time></trkpt><trkpt lat="40.215550" lon="-5.856240"><ele>1227.3</ele><time>2015-07-07T12:58:27Z</time></trkpt><trkpt lat="40.215690" lon="-5.856280"><ele>1229.7</ele><time>2015-07-07T12:58:54Z</time></trkpt><trkpt lat="40.215720" lon="-5.856340"><ele>1230.3</ele><time>2015-07-07T12:59:21Z</time></trkpt><trkpt lat="40.215710" lon="-5.856350"><ele>1230.2</ele><time>2015-07-07T12:59:48Z</time></trkpt><trkpt lat="40.215860" lon="-5.856400"><ele>1232.3</ele><time>2015-07-07T13:00:15Z</time></trkpt><trkpt lat="40.216050" lon="-5.856500"><ele>1233.9</ele><time>2015-07-07T13:00:42Z</time></trkpt><trkpt lat="40.216220" lon="-5.856590"><ele>1235.7</ele><time>2015-07-07T13:01:09Z</time></trkpt><trkpt lat="40.216400" lon="-5.856700"><ele>1238.1</ele><time>2015-07-07T13:01:36Z</time></trkpt><trkpt lat="40.216530" lon="-5.856820"><ele>1239.7</ele><time>2015-07-07T13:02:03Z</time></trkpt><trkpt lat="40.216690" lon="-5.856940"><ele>1241.5</ele><time>2015-07-07T13:02:30Z</time></trkpt><trkpt lat="40.216940" lon="-5.857130"><ele>1244.9</ele><time>2015-07-07T13:02:57Z</time></trkpt><trkpt lat="40.217130" lon="-5.857340"><ele>1249.3</ele><time>2015-07-07T13:03:24Z</time></trkpt><trkpt lat="40.217080" lon="-5.857770"><ele>1247.4</ele><time>2015-07-07T13:03:51Z</time></trkpt><trkpt lat="40.217040" lon="-5.857980"><ele>1245.1</ele><time>2015-07-07T13:04:18Z</time></trkpt><trkpt lat="40.217030" lon="-5.858390"><ele>1244.1</ele><time>2015-07-07T13:04:45Z</time></trkpt><trkpt lat="40.217140" lon="-5.858650"><ele>1248.6</ele><time>2015-07-07T13:05:12Z</time></trkpt><trkpt lat="40.217320" lon="-5.859020"><ele>1253.8</ele><time>2015-07-07T13:05:39Z</time></trkpt><trkpt lat="40.217540" lon="-5.859410"><ele>1257.8</ele><time>2015-07-07T13:06:06Z</time></trkpt><trkpt lat="40.217720" lon="-5.859740"><ele>1259.7</ele><time>2015-07-07T13:06:33Z</time></trkpt><trkpt lat="40.217890" lon="-5.859950"><ele>1263.1</ele><time>2015-07-07T13:07:00Z</time></trkpt><trkpt lat="40.218050" lon="-5.860120"><ele>1266.4</ele><time>2015-07-07T13:07:27Z</time></trkpt><trkpt lat="40.218240" lon="-5.860280"><ele>1269.3</ele><time>2015-07-07T13:07:54Z</time></trkpt><trkpt lat="40.218470" lon="-5.860440"><ele>1272.1</ele><time>2015-07-07T13:08:21Z</time></trkpt><trkpt lat="40.218750" lon="-5.860650"><ele>1275.0</ele><time>2015-07-07T13:08:48Z</time></trkpt><trkpt lat="40.218920" lon="-5.860890"><ele>1274.4</ele><time>2015-07-07T13:09:15Z</time></trkpt><trkpt lat="40.219090" lon="-5.861270"><ele>1274.8</ele><time>2015-07-07T13:09:42Z</time></trkpt><trkpt lat="40.219120" lon="-5.861660"><ele>1277.9</ele><time>2015-07-07T13:10:09Z</time></trkpt><trkpt lat="40.219130" lon="-5.861980"><ele>1280.0</ele><time>2015-07-07T13:10:36Z</time></trkpt><trkpt lat="40.219230" lon="-5.862340"><ele>1282.4</ele><time>2015-07-07T13:11:03Z</time></trkpt><trkpt lat="40.219380" lon="-5.862670"><ele>1287.6</ele><time>2015-07-07T13:11:30Z</time></trkpt><trkpt lat="40.219520" lon="-5.862980"><ele>1291.3</ele><time>2015-07-07T13:11:57Z</time></trkpt><trkpt lat="40.219650" lon="-5.863300"><ele>1291.3</ele><time>2015-07-07T13:12:24Z</time></trkpt><trkpt lat="40.219480" lon="-5.863560"><ele>1288.6</ele><time>2015-07-07T13:12:51Z</time></trkpt><trkpt lat="40.219450" lon="-5.863710"><ele>1288.8</ele><time>2015-07-07T13:13:18Z</time></trkpt><trkpt lat="40.219480" lon="-5.863790"><ele>1290.1</ele><time>2015-07-07T13:13:45Z</time></trkpt><trkpt lat="40.219506" lon="-5.863931"><ele>1292.3</ele><time>2015-07-07T13:14:12Z</time></trkpt><trkpt lat="40.219567" lon="-5.864207"><ele>1298.2</ele><time>2015-07-07T13:14:39Z</time></trkpt><trkpt lat="40.219629" lon="-5.864430"><ele>1301.8</ele><time>2015-07-07T13:15:06Z</time></trkpt><trkpt lat="40.219731" lon="-5.864655"><ele>1305.5</ele><time>2015-07-07T13:15:33Z</time></trkpt><trkpt lat="40.219769" lon="-5.864788"><ele>1308.2</ele><time>2015-07-07T13:16:00Z</time></trkpt><trkpt lat="40.219765" lon="-5.864912"><ele>1310.2</ele><time>2015-07-07T13:16:27Z</time></trkpt><trkpt lat="40.219724" lon="-5.864954"><ele>1310.2</ele><time>2015-07-07T13:16:54Z</time></trkpt><trkpt lat="40.219617" lon="-5.864914"><ele>1309.5</ele><time>2015-07-07T13:17:21Z</time></trkpt><trkpt lat="40.219438" lon="-5.864783"><ele>1305.9</ele><time>2015-07-07T13:17:48Z</time></trkpt><trkpt lat="40.219258" lon="-5.864661"><ele>1306.7</ele><time>2015-07-07T13:18:15Z</time></trkpt><trkpt lat="40.218600" lon="-5.864219"><ele>1312.7</ele><time>2015-07-07T13:18:42Z</time></trkpt><trkpt lat="40.218182" lon="-5.863928"><ele>1310.8</ele><time>2015-07-07T13:19:09Z</time></trkpt><trkpt lat="40.217738" lon="-5.863584"><ele>1305.3</ele><time>2015-07-07T13:19:36Z</time></trkpt><trkpt lat="40.217466" lon="-5.863387"><ele>1301.6</ele><time>2015-07-07T13:20:03Z</time></trkpt><trkpt lat="40.217277" lon="-5.863388"><ele>1302.8</ele><time>2015-07-07T13:20:30Z</time></trkpt><trkpt lat="40.217126" lon="-5.863479"><ele>1304.8</ele><time>2015-07-07T13:20:57Z</time></trkpt><trkpt lat="40.217074" lon="-5.863644"><ele>1308.1</ele><time>2015-07-07T13:21:24Z</time></trkpt><trkpt lat="40.217151" lon="-5.863832"><ele>1312.7</ele><time>2015-07-07T13:21:51Z</time></trkpt><trkpt lat="40.217206" lon="-5.864064"><ele>1315.9</ele><time>2015-07-07T13:22:18Z</time></trkpt><trkpt lat="40.217204" lon="-5.864390"><ele>1315.5</ele><time>2015-07-07T13:22:45Z</time></trkpt><trkpt lat="40.217213" lon="-5.864575"><ele>1314.7</ele><time>2015-07-07T13:23:12Z</time></trkpt><trkpt lat="40.217366" lon="-5.864943"><ele>1317.0</ele><time>2015-07-07T13:23:39Z</time></trkpt><trkpt lat="40.217489" lon="-5.865186"><ele>1319.6</ele><time>2015-07-07T13:24:06Z</time></trkpt><trkpt lat="40.217793" lon="-5.865454"><ele>1327.4</ele><time>2015-07-07T13:24:33Z</time></trkpt><trkpt lat="40.218335" lon="-5.865918"><ele>1336.0</ele><time>2015-07-07T13:25:00Z</time></trkpt><trkpt lat="40.218652" lon="-5.866213"><ele>1345.1</ele><time>2015-07-07T13:25:27Z</time></trkpt><trkpt lat="40.218876" lon="-5.866461"><ele>1351.4</ele><time>2015-07-07T13:25:54Z</time></trkpt><trkpt lat="40.218924" lon="-5.866700"><ele>1351.7</ele><time>2015-07-07T13:26:21Z</time></trkpt><trkpt lat="40.219145" lon="-5.867062"><ele>1354.1</ele><time>2015-07-07T13:26:48Z</time></trkpt><trkpt lat="40.219486" lon="-5.867456"><ele>1362.2</ele><time>2015-07-07T13:27:15Z</time></trkpt><trkpt lat="40.219611" lon="-5.867602"><ele>1364.2</ele><time>2015-07-07T13:27:42Z</time></trkpt><trkpt lat="40.219878" lon="-5.867745"><ele>1370.7</ele><time>2015-07-07T13:28:09Z</time></trkpt><trkpt lat="40.220056" lon="-5.867912"><ele>1373.5</ele><time>2015-07-07T13:28:36Z</time></trkpt><trkpt lat="40.220195" lon="-5.868014"><ele>1375.8</ele><time>2015-07-07T13:29:03Z</time></trkpt><trkpt lat="40.220308" lon="-5.868107"><ele>1377.6</ele><time>2015-07-07T13:29:30Z</time></trkpt><trkpt lat="40.220353" lon="-5.868171"><ele>1377.5</ele><time>2015-07-07T13:29:57Z</time></trkpt><trkpt lat="40.220413" lon="-5.868209"><ele>1378.1</ele><time>2015-07-07T13:30:24Z</time></trkpt><trkpt lat="40.220460" lon="-5.868255"><ele>1378.5</ele><time>2015-07-07T13:30:51Z</time></trkpt><trkpt lat="40.220511" lon="-5.868354"><ele>1378.9</ele><time>2015-07-07T13:31:18Z</time></trkpt><trkpt lat="40.220600" lon="-5.868530"><ele>1380.8</ele><time>2015-07-07T13:31:45Z</time></trkpt><trkpt lat="40.220690" lon="-5.868840"><ele>1385.1</ele><time>2015-07-07T13:32:12Z</time></trkpt><trkpt lat="40.220770" lon="-5.869080"><ele>1390.4</ele><time>2015-07-07T13:32:39Z</time></trkpt><trkpt lat="40.220880" lon="-5.869340"><ele>1394.7</ele><time>2015-07-07T13:33:06Z</time></trkpt><trkpt lat="40.220960" lon="-5.869590"><ele>1396.4</ele><time>2015-07-07T13:33:33Z</time></trkpt><trkpt lat="40.221002" lon="-5.869811"><ele>1397.4</ele><time>2015-07-07T13:34:00Z</time></trkpt><trkpt lat="40.221019" lon="-5.869829"><ele>1397.9</ele><time>2015-07-07T13:34:27Z</time></trkpt><trkpt lat="40.221041" lon="-5.869866"><ele>1398.5</ele><time>2015-07-07T13:34:54Z</time></trkpt><trkpt lat="40.221071" lon="-5.870008"><ele>1399.1</ele><time>2015-07-07T13:35:21Z</time></trkpt><trkpt lat="40.221082" lon="-5.870114"><ele>1400.6</ele><time>2015-07-07T13:35:48Z</time></trkpt><trkpt lat="40.221106" lon="-5.870247"><ele>1402.6</ele><time>2015-07-07T13:36:15Z</time></trkpt><trkpt lat="40.221080" lon="-5.870270"><ele>1402.4</ele><time>2015-07-07T13:36:42Z</time></trkpt><trkpt lat="40.220830" lon="-5.870300"><ele>1398.8</ele><time>2015-07-07T13:37:09Z</time></trkpt><trkpt lat="40.220750" lon="-5.870340"><ele>1399.5</ele><time>2015-07-07T13:37:36Z</time></trkpt><trkpt lat="40.220760" lon="-5.870330"><ele>1399.3</ele><time>2015-07-07T13:38:03Z</time></trkpt><trkpt lat="40.220748" lon="-5.870341"><ele>1399.5</ele><time>2015-07-07T13:38:30Z</time></trkpt><trkpt lat="40.220690" lon="-5.870412"><ele>1401.3</ele><time>2015-07-07T13:38:57Z</time></trkpt><trkpt lat="40.220590" lon="-5.870610"><ele>1405.6</ele><time>2015-07-07T13:39:24Z</time></trkpt><trkpt lat="40.220460" lon="-5.870870"><ele>1409.4</ele><time>2015-07-07T13:39:51Z</time></trkpt><trkpt lat="40.220350" lon="-5.871044"><ele>1412.0</ele><time>2015-07-07T13:40:18Z</time></trkpt><trkpt lat="40.219892" lon="-5.871233"><ele>1410.9</ele><time>2015-07-07T13:40:45Z</time></trkpt><trkpt lat="40.219491" lon="-5.871454"><ele>1415.7</ele><time>2015-07-07T13:41:12Z</time></trkpt><trkpt lat="40.219095" lon="-5.871616"><ele>1415.7</ele><time>2015-07-07T13:41:39Z</time></trkpt><trkpt lat="40.219107" lon="-5.871755"><ele>1419.0</ele><time>2015-07-07T13:42:06Z</time></trkpt><trkpt lat="40.219424" lon="-5.871674"><ele>1421.8</ele><time>2015-07-07T13:42:33Z</time></trkpt><trkpt lat="40.220670" lon="-5.871520"><ele>1421.8</ele><time>2015-07-07T13:43:00Z</time></trkpt><trkpt lat="40.220890" lon="-5.871460"><ele>1423.8</ele><time>2015-07-07T13:43:27Z</time></trkpt><trkpt lat="40.221140" lon="-5.871450"><ele>1426.5</ele><time>2015-07-07T13:43:54Z</time></trkpt><trkpt lat="40.221390" lon="-5.871520"><ele>1424.4</ele><time>2015-07-07T13:44:21Z</time></trkpt><trkpt lat="40.221590" lon="-5.871680"><ele>1426.9</ele><time>2015-07-07T13:44:48Z</time></trkpt><trkpt lat="40.221780" lon="-5.871710"><ele>1428.7</ele><time>2015-07-07T13:45:15Z</time></trkpt><trkpt lat="40.221790" lon="-5.871710"><ele>1428.7</ele><time>2015-07-07T13:45:42Z</time></trkpt><trkpt lat="40.221770" lon="-5.871690"><ele>1428.4</ele><time>2015-07-07T13:46:09Z</time></trkpt><trkpt lat="40.221790" lon="-5.871710"><ele>1428.7</ele><time>2015-07-07T13:46:36Z</time></trkpt><trkpt lat="40.221790" lon="-5.871740"><ele>1429.0</ele><time>2015-07-07T13:47:03Z</time></trkpt><trkpt lat="40.221790" lon="-5.871730"><ele>1428.9</ele><time>2015-07-07T13:47:30Z</time></trkpt><trkpt lat="40.221790" lon="-5.871700"><ele>1428.7</ele><time>2015-07-07T13:47:57Z</time></trkpt><trkpt lat="40.221780" lon="-5.871710"><ele>1428.7</ele><time>2015-07-07T13:48:24Z</time></trkpt><trkpt lat="40.221780" lon="-5.871700"><ele>1428.6</ele><time>2015-07-07T13:48:51Z</time></trkpt><trkpt lat="40.221780" lon="-5.871700"><ele>1428.6</ele><time>2015-07-07T13:49:18Z</time></trkpt><trkpt lat="40.221790" lon="-5.871710"><ele>1428.7</ele><time>2015-07-07T13:49:45Z</time></trkpt><trkpt lat="40.221790" lon="-5.871700"><ele>1428.7</ele><time>2015-07-07T13:50:12Z</time></trkpt><trkpt lat="40.221780" lon="-5.871720"><ele>1428.8</ele><time>2015-07-07T13:50:39Z</time></trkpt><trkpt lat="40.221780" lon="-5.871720"><ele>1428.8</ele><time>2015-07-07T13:51:06Z</time></trkpt><trkpt lat="40.221780" lon="-5.871710"><ele>1428.7</ele><time>2015-07-07T13:51:33Z</time></trkpt><trkpt lat="40.221780" lon="-5.871740"><ele>1429.0</ele><time>2015-07-07T13:52:00Z</time></trkpt><trkpt lat="40.221780" lon="-5.871820"><ele>1429.8</ele><time>2015-07-07T13:52:27Z</time></trkpt><trkpt lat="40.221800" lon="-5.871870"><ele>1430.3</ele><time>2015-07-07T13:52:54Z</time></trkpt></trkseg></trk></gpx>